<?xml version="1.0" encoding="UTF-8" standalone="no" ?>
<gpx xmlns="http://www.topografix.com/GPX/1/1" xmlns:xsi="http://www.w3.org/2001/XMLSchema-instance" xsi:schemaLocation="http://www.topografix.com/GPX/1/1 http://www.topografix.com/GPX/1/1/gpx.xsd" version="1.1" creator="VisuGPX - https://www.visugpx.com">
  <metadata>
    <name>Rando de Warloy Baillon_13 km</name>
    <desc><![CDATA[Walkmeter Randonnée 1 déc. 2013 09:12:07]]></desc>
  </metadata>
  <trk>
    <name><![CDATA[Ch en somme - warloy baillon]]></name>
    <trkseg>
      <trkpt lat="50.00836" lon="2.52356">
        <ele>40</ele>
        <time>2013-12-01T08:12:07Z</time>
      </trkpt>
      <trkpt lat="50.00834" lon="2.52354">
        <ele>40.4</ele>
        <time>2013-12-01T08:12:08Z</time>
      </trkpt>
      <trkpt lat="50.00824" lon="2.52344">
        <ele>44.2</ele>
        <time>2013-12-01T08:12:19Z</time>
      </trkpt>
      <trkpt lat="50.00836" lon="2.52328">
        <ele>45.3</ele>
        <time>2013-12-01T08:12:25Z</time>
      </trkpt>
      <trkpt lat="50.00843" lon="2.52328">
        <ele>43.5</ele>
        <time>2013-12-01T08:12:34Z</time>
      </trkpt>
      <trkpt lat="50.0084" lon="2.52307">
        <ele>43</ele>
        <time>2013-12-01T08:12:45Z</time>
      </trkpt>
      <trkpt lat="50.00835" lon="2.52286">
        <ele>43</ele>
        <time>2013-12-01T08:12:56Z</time>
      </trkpt>
      <trkpt lat="50.0083" lon="2.52264">
        <ele>43</ele>
        <time>2013-12-01T08:13:01Z</time>
      </trkpt>
      <trkpt lat="50.00826" lon="2.5224">
        <ele>43</ele>
        <time>2013-12-01T08:13:07Z</time>
      </trkpt>
      <trkpt lat="50.00826" lon="2.52219">
        <ele>40.5</ele>
        <time>2013-12-01T08:13:22Z</time>
      </trkpt>
      <trkpt lat="50.00826" lon="2.52196">
        <ele>40.1</ele>
        <time>2013-12-01T08:13:30Z</time>
      </trkpt>
      <trkpt lat="50.00825" lon="2.52174">
        <ele>39.4</ele>
        <time>2013-12-01T08:13:42Z</time>
      </trkpt>
      <trkpt lat="50.00826" lon="2.52153">
        <ele>39</ele>
        <time>2013-12-01T08:13:51Z</time>
      </trkpt>
      <trkpt lat="50.00834" lon="2.52135">
        <ele>38.4</ele>
        <time>2013-12-01T08:14:01Z</time>
      </trkpt>
      <trkpt lat="50.00836" lon="2.52113">
        <ele>38.1</ele>
        <time>2013-12-01T08:14:07Z</time>
      </trkpt>
      <trkpt lat="50.00838" lon="2.52091">
        <ele>38.5</ele>
        <time>2013-12-01T08:14:17Z</time>
      </trkpt>
      <trkpt lat="50.00839" lon="2.5207">
        <ele>38.9</ele>
        <time>2013-12-01T08:14:25Z</time>
      </trkpt>
      <trkpt lat="50.00834" lon="2.52049">
        <ele>39.4</ele>
        <time>2013-12-01T08:14:34Z</time>
      </trkpt>
      <trkpt lat="50.00837" lon="2.52028">
        <ele>40</ele>
        <time>2013-12-01T08:14:43Z</time>
      </trkpt>
      <trkpt lat="50.00844" lon="2.52009">
        <ele>40.8</ele>
        <time>2013-12-01T08:14:57Z</time>
      </trkpt>
      <trkpt lat="50.0084" lon="2.5198">
        <ele>41.5</ele>
        <time>2013-12-01T08:15:05Z</time>
      </trkpt>
      <trkpt lat="50.0084" lon="2.51958">
        <ele>43</ele>
        <time>2013-12-01T08:15:16Z</time>
      </trkpt>
      <trkpt lat="50.00832" lon="2.51939">
        <ele>44.3</ele>
        <time>2013-12-01T08:15:27Z</time>
      </trkpt>
      <trkpt lat="50.00823" lon="2.51921">
        <ele>44.9</ele>
        <time>2013-12-01T08:15:36Z</time>
      </trkpt>
      <trkpt lat="50.00819" lon="2.51901">
        <ele>45.5</ele>
        <time>2013-12-01T08:15:45Z</time>
      </trkpt>
      <trkpt lat="50.00812" lon="2.51881">
        <ele>46.3</ele>
        <time>2013-12-01T08:15:57Z</time>
      </trkpt>
      <trkpt lat="50.00804" lon="2.51862">
        <ele>47</ele>
        <time>2013-12-01T08:16:07Z</time>
      </trkpt>
      <trkpt lat="50.00801" lon="2.51842">
        <ele>46.8</ele>
        <time>2013-12-01T08:16:15Z</time>
      </trkpt>
      <trkpt lat="50.00797" lon="2.51821">
        <ele>46.5</ele>
        <time>2013-12-01T08:16:27Z</time>
      </trkpt>
      <trkpt lat="50.00796" lon="2.51811">
        <ele>46.3</ele>
        <time>2013-12-01T08:16:33Z</time>
      </trkpt>
      <trkpt lat="50.00799" lon="2.51801">
        <ele>46.1</ele>
        <time>2013-12-01T08:16:42Z</time>
      </trkpt>
      <trkpt lat="50.00793" lon="2.5178">
        <ele>45.9</ele>
        <time>2013-12-01T08:16:51Z</time>
      </trkpt>
      <trkpt lat="50.00785" lon="2.5176">
        <ele>45.7</ele>
        <time>2013-12-01T08:16:59Z</time>
      </trkpt>
      <trkpt lat="50.00779" lon="2.5174">
        <ele>45.5</ele>
        <time>2013-12-01T08:17:06Z</time>
      </trkpt>
      <trkpt lat="50.00778" lon="2.51718">
        <ele>45.1</ele>
        <time>2013-12-01T08:17:19Z</time>
      </trkpt>
      <trkpt lat="50.00772" lon="2.51697">
        <ele>45</ele>
        <time>2013-12-01T08:17:26Z</time>
      </trkpt>
      <trkpt lat="50.00763" lon="2.5168">
        <ele>44.8</ele>
        <time>2013-12-01T08:17:34Z</time>
      </trkpt>
      <trkpt lat="50.00765" lon="2.51652">
        <ele>44.5</ele>
        <time>2013-12-01T08:17:43Z</time>
      </trkpt>
      <trkpt lat="50.00768" lon="2.51631">
        <ele>44.1</ele>
        <time>2013-12-01T08:18:01Z</time>
      </trkpt>
      <trkpt lat="50.00762" lon="2.51611">
        <ele>43.8</ele>
        <time>2013-12-01T08:18:10Z</time>
      </trkpt>
      <trkpt lat="50.00749" lon="2.51593">
        <ele>43.6</ele>
        <time>2013-12-01T08:18:19Z</time>
      </trkpt>
      <trkpt lat="50.00742" lon="2.51574">
        <ele>43.2</ele>
        <time>2013-12-01T08:18:34Z</time>
      </trkpt>
      <trkpt lat="50.00737" lon="2.51554">
        <ele>43</ele>
        <time>2013-12-01T08:18:42Z</time>
      </trkpt>
      <trkpt lat="50.00724" lon="2.51545">
        <ele>39.4</ele>
        <time>2013-12-01T08:18:49Z</time>
      </trkpt>
      <trkpt lat="50.00711" lon="2.51536">
        <ele>41.8</ele>
        <time>2013-12-01T08:18:59Z</time>
      </trkpt>
      <trkpt lat="50.00702" lon="2.5152">
        <ele>43</ele>
        <time>2013-12-01T08:19:08Z</time>
      </trkpt>
      <trkpt lat="50.00692" lon="2.51505">
        <ele>44</ele>
        <time>2013-12-01T08:19:15Z</time>
      </trkpt>
      <trkpt lat="50.00687" lon="2.51482">
        <ele>45.1</ele>
        <time>2013-12-01T08:19:34Z</time>
      </trkpt>
      <trkpt lat="50.00677" lon="2.51467">
        <ele>43.5</ele>
        <time>2013-12-01T08:19:39Z</time>
      </trkpt>
      <trkpt lat="50.00668" lon="2.51447">
        <ele>40.2</ele>
        <time>2013-12-01T08:19:45Z</time>
      </trkpt>
      <trkpt lat="50.00661" lon="2.51429">
        <ele>38.5</ele>
        <time>2013-12-01T08:19:52Z</time>
      </trkpt>
      <trkpt lat="50.00655" lon="2.51409">
        <ele>39.8</ele>
        <time>2013-12-01T08:19:59Z</time>
      </trkpt>
      <trkpt lat="50.00648" lon="2.5139">
        <ele>41.5</ele>
        <time>2013-12-01T08:20:08Z</time>
      </trkpt>
      <trkpt lat="50.00639" lon="2.51373">
        <ele>41.2</ele>
        <time>2013-12-01T08:20:17Z</time>
      </trkpt>
      <trkpt lat="50.00636" lon="2.51352">
        <ele>39.7</ele>
        <time>2013-12-01T08:20:28Z</time>
      </trkpt>
      <trkpt lat="50.00633" lon="2.5133">
        <ele>37.6</ele>
        <time>2013-12-01T08:20:42Z</time>
      </trkpt>
      <trkpt lat="50.00626" lon="2.51309">
        <ele>39.3</ele>
        <time>2013-12-01T08:20:51Z</time>
      </trkpt>
      <trkpt lat="50.00621" lon="2.51289">
        <ele>38.1</ele>
        <time>2013-12-01T08:21:02Z</time>
      </trkpt>
      <trkpt lat="50.00623" lon="2.51282">
        <ele>37.2</ele>
        <time>2013-12-01T08:21:09Z</time>
      </trkpt>
      <trkpt lat="50.00615" lon="2.51262">
        <ele>38.1</ele>
        <time>2013-12-01T08:21:22Z</time>
      </trkpt>
      <trkpt lat="50.00606" lon="2.51245">
        <ele>38.6</ele>
        <time>2013-12-01T08:21:30Z</time>
      </trkpt>
      <trkpt lat="50.00598" lon="2.51226">
        <ele>39.3</ele>
        <time>2013-12-01T08:21:41Z</time>
      </trkpt>
      <trkpt lat="50.00592" lon="2.51205">
        <ele>39.9</ele>
        <time>2013-12-01T08:21:50Z</time>
      </trkpt>
      <trkpt lat="50.00584" lon="2.51188">
        <ele>38.7</ele>
        <time>2013-12-01T08:22:00Z</time>
      </trkpt>
      <trkpt lat="50.00578" lon="2.51169">
        <ele>36.9</ele>
        <time>2013-12-01T08:22:13Z</time>
      </trkpt>
      <trkpt lat="50.00571" lon="2.51149">
        <ele>34.6</ele>
        <time>2013-12-01T08:22:25Z</time>
      </trkpt>
      <trkpt lat="50.0056" lon="2.51136">
        <ele>31.8</ele>
        <time>2013-12-01T08:22:38Z</time>
      </trkpt>
      <trkpt lat="50.00553" lon="2.51116">
        <ele>31</ele>
        <time>2013-12-01T08:22:47Z</time>
      </trkpt>
      <trkpt lat="50.00543" lon="2.511">
        <ele>33</ele>
        <time>2013-12-01T08:22:57Z</time>
      </trkpt>
      <trkpt lat="50.00537" lon="2.5108">
        <ele>30</ele>
        <time>2013-12-01T08:23:09Z</time>
      </trkpt>
      <trkpt lat="50.00528" lon="2.51062">
        <ele>27.4</ele>
        <time>2013-12-01T08:23:22Z</time>
      </trkpt>
      <trkpt lat="50.00518" lon="2.51048">
        <ele>25.5</ele>
        <time>2013-12-01T08:23:33Z</time>
      </trkpt>
      <trkpt lat="50.00509" lon="2.51033">
        <ele>23.1</ele>
        <time>2013-12-01T08:23:42Z</time>
      </trkpt>
      <trkpt lat="50.005" lon="2.51015">
        <ele>23.5</ele>
        <time>2013-12-01T08:23:52Z</time>
      </trkpt>
      <trkpt lat="50.00493" lon="2.50995">
        <ele>23.9</ele>
        <time>2013-12-01T08:24:01Z</time>
      </trkpt>
      <trkpt lat="50.00483" lon="2.5098">
        <ele>22.4</ele>
        <time>2013-12-01T08:24:12Z</time>
      </trkpt>
      <trkpt lat="50.00476" lon="2.5096">
        <ele>20.6</ele>
        <time>2013-12-01T08:24:22Z</time>
      </trkpt>
      <trkpt lat="50.00467" lon="2.50945">
        <ele>19.1</ele>
        <time>2013-12-01T08:24:32Z</time>
      </trkpt>
      <trkpt lat="50.00459" lon="2.50926">
        <ele>20.7</ele>
        <time>2013-12-01T08:24:45Z</time>
      </trkpt>
      <trkpt lat="50.00449" lon="2.5091">
        <ele>22</ele>
        <time>2013-12-01T08:24:55Z</time>
      </trkpt>
      <trkpt lat="50.00436" lon="2.50904">
        <ele>23.7</ele>
        <time>2013-12-01T08:25:05Z</time>
      </trkpt>
      <trkpt lat="50.00429" lon="2.50885">
        <ele>25.4</ele>
        <time>2013-12-01T08:25:15Z</time>
      </trkpt>
      <trkpt lat="50.00422" lon="2.50866">
        <ele>27.1</ele>
        <time>2013-12-01T08:25:25Z</time>
      </trkpt>
      <trkpt lat="50.00415" lon="2.50847">
        <ele>31.3</ele>
        <time>2013-12-01T08:25:35Z</time>
      </trkpt>
      <trkpt lat="50.00406" lon="2.5083">
        <ele>34.3</ele>
        <time>2013-12-01T08:25:43Z</time>
      </trkpt>
      <trkpt lat="50.00401" lon="2.5081">
        <ele>36.8</ele>
        <time>2013-12-01T08:25:54Z</time>
      </trkpt>
      <trkpt lat="50.00394" lon="2.50791">
        <ele>36.2</ele>
        <time>2013-12-01T08:26:06Z</time>
      </trkpt>
      <trkpt lat="50.00386" lon="2.50773">
        <ele>36.5</ele>
        <time>2013-12-01T08:26:18Z</time>
      </trkpt>
      <trkpt lat="50.00374" lon="2.50764">
        <ele>36.7</ele>
        <time>2013-12-01T08:26:27Z</time>
      </trkpt>
      <trkpt lat="50.00365" lon="2.50748">
        <ele>37</ele>
        <time>2013-12-01T08:26:36Z</time>
      </trkpt>
      <trkpt lat="50.00358" lon="2.50728">
        <ele>35.2</ele>
        <time>2013-12-01T08:26:48Z</time>
      </trkpt>
      <trkpt lat="50.00351" lon="2.50709">
        <ele>33.4</ele>
        <time>2013-12-01T08:26:59Z</time>
      </trkpt>
      <trkpt lat="50.00339" lon="2.50696">
        <ele>31.9</ele>
        <time>2013-12-01T08:27:09Z</time>
      </trkpt>
      <trkpt lat="50.00328" lon="2.50683">
        <ele>30</ele>
        <time>2013-12-01T08:27:22Z</time>
      </trkpt>
      <trkpt lat="50.00314" lon="2.50677">
        <ele>30.7</ele>
        <time>2013-12-01T08:27:30Z</time>
      </trkpt>
      <trkpt lat="50.003" lon="2.50672">
        <ele>31.5</ele>
        <time>2013-12-01T08:27:38Z</time>
      </trkpt>
      <trkpt lat="50.00291" lon="2.50653">
        <ele>34.1</ele>
        <time>2013-12-01T08:27:51Z</time>
      </trkpt>
      <trkpt lat="50.00287" lon="2.50632">
        <ele>37.2</ele>
        <time>2013-12-01T08:28:02Z</time>
      </trkpt>
      <trkpt lat="50.0028" lon="2.50612">
        <ele>39.1</ele>
        <time>2013-12-01T08:28:11Z</time>
      </trkpt>
      <trkpt lat="50.00278" lon="2.5059">
        <ele>41</ele>
        <time>2013-12-01T08:28:23Z</time>
      </trkpt>
      <trkpt lat="50.0027" lon="2.50573">
        <ele>41</ele>
        <time>2013-12-01T08:28:33Z</time>
      </trkpt>
      <trkpt lat="50.00263" lon="2.50553">
        <ele>41</ele>
        <time>2013-12-01T08:28:42Z</time>
      </trkpt>
      <trkpt lat="50.00258" lon="2.50533">
        <ele>41.2</ele>
        <time>2013-12-01T08:28:53Z</time>
      </trkpt>
      <trkpt lat="50.0025" lon="2.50514">
        <ele>42.2</ele>
        <time>2013-12-01T08:29:02Z</time>
      </trkpt>
      <trkpt lat="50.00243" lon="2.50495">
        <ele>43.6</ele>
        <time>2013-12-01T08:29:14Z</time>
      </trkpt>
      <trkpt lat="50.00234" lon="2.50478">
        <ele>44.8</ele>
        <time>2013-12-01T08:29:25Z</time>
      </trkpt>
      <trkpt lat="50.0023" lon="2.50458">
        <ele>45.4</ele>
        <time>2013-12-01T08:29:31Z</time>
      </trkpt>
      <trkpt lat="50.00227" lon="2.50434">
        <ele>46.8</ele>
        <time>2013-12-01T08:29:43Z</time>
      </trkpt>
      <trkpt lat="50.00218" lon="2.50416">
        <ele>47</ele>
        <time>2013-12-01T08:29:49Z</time>
      </trkpt>
      <trkpt lat="50.00211" lon="2.50396">
        <ele>49.7</ele>
        <time>2013-12-01T08:29:58Z</time>
      </trkpt>
      <trkpt lat="50.00204" lon="2.50376">
        <ele>49.3</ele>
        <time>2013-12-01T08:30:06Z</time>
      </trkpt>
      <trkpt lat="50.00203" lon="2.50355">
        <ele>47</ele>
        <time>2013-12-01T08:30:18Z</time>
      </trkpt>
      <trkpt lat="50.00197" lon="2.50336">
        <ele>46.6</ele>
        <time>2013-12-01T08:30:31Z</time>
      </trkpt>
      <trkpt lat="50.00199" lon="2.50315">
        <ele>46.2</ele>
        <time>2013-12-01T08:30:45Z</time>
      </trkpt>
      <trkpt lat="50.00193" lon="2.50296">
        <ele>45.9</ele>
        <time>2013-12-01T08:30:57Z</time>
      </trkpt>
      <trkpt lat="50.00192" lon="2.50273">
        <ele>45.5</ele>
        <time>2013-12-01T08:31:09Z</time>
      </trkpt>
      <trkpt lat="50.00187" lon="2.50251">
        <ele>45.3</ele>
        <time>2013-12-01T08:31:19Z</time>
      </trkpt>
      <trkpt lat="50.00181" lon="2.50233">
        <ele>45.1</ele>
        <time>2013-12-01T08:31:25Z</time>
      </trkpt>
      <trkpt lat="50.00176" lon="2.50212">
        <ele>44.8</ele>
        <time>2013-12-01T08:31:35Z</time>
      </trkpt>
      <trkpt lat="50.0017" lon="2.50192">
        <ele>44.5</ele>
        <time>2013-12-01T08:31:46Z</time>
      </trkpt>
      <trkpt lat="50.00165" lon="2.50171">
        <ele>44.3</ele>
        <time>2013-12-01T08:31:53Z</time>
      </trkpt>
      <trkpt lat="50.00162" lon="2.50149">
        <ele>42.8</ele>
        <time>2013-12-01T08:32:10Z</time>
      </trkpt>
      <trkpt lat="50.00155" lon="2.50127">
        <ele>40.9</ele>
        <time>2013-12-01T08:32:21Z</time>
      </trkpt>
      <trkpt lat="50.0015" lon="2.50106">
        <ele>40.3</ele>
        <time>2013-12-01T08:32:29Z</time>
      </trkpt>
      <trkpt lat="50.00144" lon="2.50085">
        <ele>39.2</ele>
        <time>2013-12-01T08:32:43Z</time>
      </trkpt>
      <trkpt lat="50.0014" lon="2.50065">
        <ele>38.5</ele>
        <time>2013-12-01T08:32:53Z</time>
      </trkpt>
      <trkpt lat="50.0014" lon="2.50043">
        <ele>37.5</ele>
        <time>2013-12-01T08:33:06Z</time>
      </trkpt>
      <trkpt lat="50.00134" lon="2.50021">
        <ele>36.8</ele>
        <time>2013-12-01T08:33:14Z</time>
      </trkpt>
      <trkpt lat="50.00127" lon="2.50002">
        <ele>35.5</ele>
        <time>2013-12-01T08:33:21Z</time>
      </trkpt>
      <trkpt lat="50.00123" lon="2.49977">
        <ele>34.2</ele>
        <time>2013-12-01T08:33:28Z</time>
      </trkpt>
      <trkpt lat="50.00127" lon="2.49953">
        <ele>36.3</ele>
        <time>2013-12-01T08:33:39Z</time>
      </trkpt>
      <trkpt lat="50.00136" lon="2.49937">
        <ele>39.5</ele>
        <time>2013-12-01T08:33:48Z</time>
      </trkpt>
      <trkpt lat="50.0014" lon="2.49916">
        <ele>42.1</ele>
        <time>2013-12-01T08:33:58Z</time>
      </trkpt>
      <trkpt lat="50.00142" lon="2.49895">
        <ele>42.4</ele>
        <time>2013-12-01T08:34:09Z</time>
      </trkpt>
      <trkpt lat="50.00143" lon="2.49874">
        <ele>42.6</ele>
        <time>2013-12-01T08:34:17Z</time>
      </trkpt>
      <trkpt lat="50.00145" lon="2.49852">
        <ele>42.9</ele>
        <time>2013-12-01T08:34:27Z</time>
      </trkpt>
      <trkpt lat="50.00145" lon="2.4983">
        <ele>40</ele>
        <time>2013-12-01T08:34:35Z</time>
      </trkpt>
      <trkpt lat="50.00151" lon="2.49809">
        <ele>39.2</ele>
        <time>2013-12-01T08:34:46Z</time>
      </trkpt>
      <trkpt lat="50.00149" lon="2.49788">
        <ele>38.5</ele>
        <time>2013-12-01T08:34:56Z</time>
      </trkpt>
      <trkpt lat="50.0015" lon="2.49765">
        <ele>38</ele>
        <time>2013-12-01T08:35:04Z</time>
      </trkpt>
      <trkpt lat="50.00159" lon="2.49749">
        <ele>37.1</ele>
        <time>2013-12-01T08:35:17Z</time>
      </trkpt>
      <trkpt lat="50.0016" lon="2.49728">
        <ele>36.5</ele>
        <time>2013-12-01T08:35:25Z</time>
      </trkpt>
      <trkpt lat="50.00163" lon="2.49707">
        <ele>34.6</ele>
        <time>2013-12-01T08:35:37Z</time>
      </trkpt>
      <trkpt lat="50.00161" lon="2.49685">
        <ele>34.2</ele>
        <time>2013-12-01T08:35:46Z</time>
      </trkpt>
      <trkpt lat="50.00163" lon="2.49662">
        <ele>35.8</ele>
        <time>2013-12-01T08:35:54Z</time>
      </trkpt>
      <trkpt lat="50.00165" lon="2.4964">
        <ele>37.3</ele>
        <time>2013-12-01T08:36:05Z</time>
      </trkpt>
      <trkpt lat="50.00172" lon="2.49618">
        <ele>39.3</ele>
        <time>2013-12-01T08:36:20Z</time>
      </trkpt>
      <trkpt lat="50.00182" lon="2.49603">
        <ele>40.3</ele>
        <time>2013-12-01T08:36:31Z</time>
      </trkpt>
      <trkpt lat="50.00182" lon="2.4958">
        <ele>40.8</ele>
        <time>2013-12-01T08:36:40Z</time>
      </trkpt>
      <trkpt lat="50.0019" lon="2.49563">
        <ele>41.3</ele>
        <time>2013-12-01T08:36:50Z</time>
      </trkpt>
      <trkpt lat="50.0019" lon="2.49541">
        <ele>41.7</ele>
        <time>2013-12-01T08:36:58Z</time>
      </trkpt>
      <trkpt lat="50.0019" lon="2.49518">
        <ele>42.2</ele>
        <time>2013-12-01T08:37:07Z</time>
      </trkpt>
      <trkpt lat="50.00192" lon="2.49495">
        <ele>42.6</ele>
        <time>2013-12-01T08:37:16Z</time>
      </trkpt>
      <trkpt lat="50.00197" lon="2.49475">
        <ele>42.1</ele>
        <time>2013-12-01T08:37:28Z</time>
      </trkpt>
      <trkpt lat="50.00197" lon="2.49452">
        <ele>40.2</ele>
        <time>2013-12-01T08:37:39Z</time>
      </trkpt>
      <trkpt lat="50.00203" lon="2.49429">
        <ele>39.2</ele>
        <time>2013-12-01T08:37:49Z</time>
      </trkpt>
      <trkpt lat="50.00207" lon="2.49405">
        <ele>37.9</ele>
        <time>2013-12-01T08:38:03Z</time>
      </trkpt>
      <trkpt lat="50.00208" lon="2.49383">
        <ele>37.1</ele>
        <time>2013-12-01T08:38:12Z</time>
      </trkpt>
      <trkpt lat="50.00209" lon="2.49361">
        <ele>35.9</ele>
        <time>2013-12-01T08:38:25Z</time>
      </trkpt>
      <trkpt lat="50.00219" lon="2.49337">
        <ele>34.5</ele>
        <time>2013-12-01T08:38:38Z</time>
      </trkpt>
      <trkpt lat="50.00219" lon="2.49316">
        <ele>33.4</ele>
        <time>2013-12-01T08:38:51Z</time>
      </trkpt>
      <trkpt lat="50.00212" lon="2.49298">
        <ele>32.9</ele>
        <time>2013-12-01T08:39:01Z</time>
      </trkpt>
      <trkpt lat="50.00217" lon="2.49277">
        <ele>32.2</ele>
        <time>2013-12-01T08:39:12Z</time>
      </trkpt>
      <trkpt lat="50.00222" lon="2.49255">
        <ele>31.7</ele>
        <time>2013-12-01T08:39:21Z</time>
      </trkpt>
      <trkpt lat="50.00229" lon="2.49235">
        <ele>31.1</ele>
        <time>2013-12-01T08:39:32Z</time>
      </trkpt>
      <trkpt lat="50.00229" lon="2.49209">
        <ele>31.3</ele>
        <time>2013-12-01T08:39:41Z</time>
      </trkpt>
      <trkpt lat="50.00231" lon="2.49188">
        <ele>31.8</ele>
        <time>2013-12-01T08:39:52Z</time>
      </trkpt>
      <trkpt lat="50.00232" lon="2.49167">
        <ele>32.2</ele>
        <time>2013-12-01T08:40:01Z</time>
      </trkpt>
      <trkpt lat="50.00238" lon="2.49147">
        <ele>32.7</ele>
        <time>2013-12-01T08:40:13Z</time>
      </trkpt>
      <trkpt lat="50.00243" lon="2.49128">
        <ele>33.1</ele>
        <time>2013-12-01T08:40:23Z</time>
      </trkpt>
      <trkpt lat="50.00244" lon="2.49106">
        <ele>33.6</ele>
        <time>2013-12-01T08:40:34Z</time>
      </trkpt>
      <trkpt lat="50.0025" lon="2.49087">
        <ele>35</ele>
        <time>2013-12-01T08:40:48Z</time>
      </trkpt>
      <trkpt lat="50.00255" lon="2.49067">
        <ele>37.4</ele>
        <time>2013-12-01T08:40:57Z</time>
      </trkpt>
      <trkpt lat="50.00259" lon="2.49046">
        <ele>40.6</ele>
        <time>2013-12-01T08:41:06Z</time>
      </trkpt>
      <trkpt lat="50.00259" lon="2.49023">
        <ele>44.3</ele>
        <time>2013-12-01T08:41:16Z</time>
      </trkpt>
      <trkpt lat="50.0026" lon="2.49001">
        <ele>46.1</ele>
        <time>2013-12-01T08:41:26Z</time>
      </trkpt>
      <trkpt lat="50.00261" lon="2.48979">
        <ele>47.6</ele>
        <time>2013-12-01T08:41:36Z</time>
      </trkpt>
      <trkpt lat="50.00264" lon="2.48957">
        <ele>50</ele>
        <time>2013-12-01T08:41:45Z</time>
      </trkpt>
      <trkpt lat="50.00271" lon="2.48938">
        <ele>50</ele>
        <time>2013-12-01T08:41:56Z</time>
      </trkpt>
      <trkpt lat="50.0027" lon="2.48916">
        <ele>49.3</ele>
        <time>2013-12-01T08:42:07Z</time>
      </trkpt>
      <trkpt lat="50.0027" lon="2.48893">
        <ele>49.8</ele>
        <time>2013-12-01T08:42:18Z</time>
      </trkpt>
      <trkpt lat="50.00271" lon="2.4887">
        <ele>51.1</ele>
        <time>2013-12-01T08:42:28Z</time>
      </trkpt>
      <trkpt lat="50.00276" lon="2.4885">
        <ele>52.5</ele>
        <time>2013-12-01T08:42:38Z</time>
      </trkpt>
      <trkpt lat="50.00282" lon="2.4883">
        <ele>53.3</ele>
        <time>2013-12-01T08:42:48Z</time>
      </trkpt>
      <trkpt lat="50.00287" lon="2.4881">
        <ele>54</ele>
        <time>2013-12-01T08:42:59Z</time>
      </trkpt>
      <trkpt lat="50.00289" lon="2.48789">
        <ele>54.6</ele>
        <time>2013-12-01T08:43:11Z</time>
      </trkpt>
      <trkpt lat="50.00292" lon="2.48766">
        <ele>55.2</ele>
        <time>2013-12-01T08:43:21Z</time>
      </trkpt>
      <trkpt lat="50.00293" lon="2.48745">
        <ele>55.8</ele>
        <time>2013-12-01T08:43:31Z</time>
      </trkpt>
      <trkpt lat="50.003" lon="2.48727">
        <ele>52</ele>
        <time>2013-12-01T08:43:41Z</time>
      </trkpt>
      <trkpt lat="50.00299" lon="2.48704">
        <ele>53</ele>
        <time>2013-12-01T08:43:57Z</time>
      </trkpt>
      <trkpt lat="50.00296" lon="2.48683">
        <ele>53.4</ele>
        <time>2013-12-01T08:44:04Z</time>
      </trkpt>
      <trkpt lat="50.00289" lon="2.48663">
        <ele>54</ele>
        <time>2013-12-01T08:44:14Z</time>
      </trkpt>
      <trkpt lat="50.00284" lon="2.48642">
        <ele>55</ele>
        <time>2013-12-01T08:44:31Z</time>
      </trkpt>
      <trkpt lat="50.00278" lon="2.48623">
        <ele>55.7</ele>
        <time>2013-12-01T08:44:36Z</time>
      </trkpt>
      <trkpt lat="50.00274" lon="2.48602">
        <ele>58</ele>
        <time>2013-12-01T08:44:51Z</time>
      </trkpt>
      <trkpt lat="50.00266" lon="2.48582">
        <ele>58.5</ele>
        <time>2013-12-01T08:44:59Z</time>
      </trkpt>
      <trkpt lat="50.00262" lon="2.48561">
        <ele>56.9</ele>
        <time>2013-12-01T08:45:09Z</time>
      </trkpt>
      <trkpt lat="50.00254" lon="2.48541">
        <ele>59.2</ele>
        <time>2013-12-01T08:45:21Z</time>
      </trkpt>
      <trkpt lat="50.00251" lon="2.4852">
        <ele>62.9</ele>
        <time>2013-12-01T08:45:36Z</time>
      </trkpt>
      <trkpt lat="50.00245" lon="2.48498">
        <ele>59.9</ele>
        <time>2013-12-01T08:45:47Z</time>
      </trkpt>
      <trkpt lat="50.00238" lon="2.4848">
        <ele>62</ele>
        <time>2013-12-01T08:45:59Z</time>
      </trkpt>
      <trkpt lat="50.00231" lon="2.48461">
        <ele>58</ele>
        <time>2013-12-01T08:46:07Z</time>
      </trkpt>
      <trkpt lat="50.00224" lon="2.48442">
        <ele>53</ele>
        <time>2013-12-01T08:46:21Z</time>
      </trkpt>
      <trkpt lat="50.00215" lon="2.48425">
        <ele>54.7</ele>
        <time>2013-12-01T08:46:31Z</time>
      </trkpt>
      <trkpt lat="50.00207" lon="2.48407">
        <ele>54</ele>
        <time>2013-12-01T08:46:39Z</time>
      </trkpt>
      <trkpt lat="50.00207" lon="2.48386">
        <ele>54</ele>
        <time>2013-12-01T08:46:53Z</time>
      </trkpt>
      <trkpt lat="50.00213" lon="2.48365">
        <ele>53.6</ele>
        <time>2013-12-01T08:47:07Z</time>
      </trkpt>
      <trkpt lat="50.00214" lon="2.48343">
        <ele>53</ele>
        <time>2013-12-01T08:47:16Z</time>
      </trkpt>
      <trkpt lat="50.00214" lon="2.4832">
        <ele>52.4</ele>
        <time>2013-12-01T08:47:26Z</time>
      </trkpt>
      <trkpt lat="50.00215" lon="2.48297">
        <ele>52</ele>
        <time>2013-12-01T08:47:33Z</time>
      </trkpt>
      <trkpt lat="50.00218" lon="2.48275">
        <ele>51.4</ele>
        <time>2013-12-01T08:47:42Z</time>
      </trkpt>
      <trkpt lat="50.00221" lon="2.48255">
        <ele>51.6</ele>
        <time>2013-12-01T08:47:52Z</time>
      </trkpt>
      <trkpt lat="50.00222" lon="2.48231">
        <ele>53</ele>
        <time>2013-12-01T08:48:02Z</time>
      </trkpt>
      <trkpt lat="50.00224" lon="2.48209">
        <ele>54.3</ele>
        <time>2013-12-01T08:48:11Z</time>
      </trkpt>
      <trkpt lat="50.0022" lon="2.48187">
        <ele>55.7</ele>
        <time>2013-12-01T08:48:21Z</time>
      </trkpt>
      <trkpt lat="50.00216" lon="2.48166">
        <ele>57.1</ele>
        <time>2013-12-01T08:48:31Z</time>
      </trkpt>
      <trkpt lat="50.0021" lon="2.48146">
        <ele>58.1</ele>
        <time>2013-12-01T08:48:38Z</time>
      </trkpt>
      <trkpt lat="50.00198" lon="2.4811">
        <ele>54.6</ele>
        <time>2013-12-01T08:48:50Z</time>
      </trkpt>
      <trkpt lat="50.00198" lon="2.4811">
        <ele>54.6</ele>
        <time>2013-12-01T08:54:03Z</time>
      </trkpt>
      <trkpt lat="50.00193" lon="2.48092">
        <ele>50</ele>
        <time>2013-12-01T08:54:04Z</time>
      </trkpt>
      <trkpt lat="50.00185" lon="2.48074">
        <ele>51</ele>
        <time>2013-12-01T08:54:12Z</time>
      </trkpt>
      <trkpt lat="50.00182" lon="2.48052">
        <ele>52.4</ele>
        <time>2013-12-01T08:54:24Z</time>
      </trkpt>
      <trkpt lat="50.00174" lon="2.48044">
        <ele>53.8</ele>
        <time>2013-12-01T08:54:38Z</time>
      </trkpt>
      <trkpt lat="50.00171" lon="2.48023">
        <ele>52.1</ele>
        <time>2013-12-01T08:54:59Z</time>
      </trkpt>
      <trkpt lat="50.00164" lon="2.48004">
        <ele>53.7</ele>
        <time>2013-12-01T08:55:08Z</time>
      </trkpt>
      <trkpt lat="50.00155" lon="2.47986">
        <ele>54.9</ele>
        <time>2013-12-01T08:55:17Z</time>
      </trkpt>
      <trkpt lat="50.00145" lon="2.4797">
        <ele>55.9</ele>
        <time>2013-12-01T08:55:26Z</time>
      </trkpt>
      <trkpt lat="50.00135" lon="2.47953">
        <ele>57.1</ele>
        <time>2013-12-01T08:55:36Z</time>
      </trkpt>
      <trkpt lat="50.00123" lon="2.47943">
        <ele>58.3</ele>
        <time>2013-12-01T08:55:46Z</time>
      </trkpt>
      <trkpt lat="50.00111" lon="2.47934">
        <ele>59.5</ele>
        <time>2013-12-01T08:55:56Z</time>
      </trkpt>
      <trkpt lat="50.00098" lon="2.47924">
        <ele>58.8</ele>
        <time>2013-12-01T08:56:12Z</time>
      </trkpt>
      <trkpt lat="50.00085" lon="2.47928">
        <ele>62.5</ele>
        <time>2013-12-01T08:56:21Z</time>
      </trkpt>
      <trkpt lat="50.00078" lon="2.47949">
        <ele>64.9</ele>
        <time>2013-12-01T08:56:33Z</time>
      </trkpt>
      <trkpt lat="50.00071" lon="2.47968">
        <ele>65.6</ele>
        <time>2013-12-01T08:56:44Z</time>
      </trkpt>
      <trkpt lat="49.99372" lon="2.47017">
        <ele>58.5</ele>
        <time>2013-12-01T09:20:24Z</time>
      </trkpt>
      <trkpt lat="49.99372" lon="2.47017">
        <ele>58.5</ele>
        <time>2013-12-01T09:26:34Z</time>
      </trkpt>
      <trkpt lat="49.98679" lon="2.46045">
        <ele>53</ele>
        <time>2013-12-01T09:26:43Z</time>
      </trkpt>
      <trkpt lat="49.98673" lon="2.46066">
        <ele>57</ele>
        <time>2013-12-01T09:26:53Z</time>
      </trkpt>
      <trkpt lat="49.98668" lon="2.46086">
        <ele>59.5</ele>
        <time>2013-12-01T09:27:02Z</time>
      </trkpt>
      <trkpt lat="49.98666" lon="2.46109">
        <ele>61.1</ele>
        <time>2013-12-01T09:27:12Z</time>
      </trkpt>
      <trkpt lat="49.98659" lon="2.46129">
        <ele>62.7</ele>
        <time>2013-12-01T09:27:23Z</time>
      </trkpt>
      <trkpt lat="49.98657" lon="2.46151">
        <ele>63.7</ele>
        <time>2013-12-01T09:27:33Z</time>
      </trkpt>
      <trkpt lat="49.98654" lon="2.46173">
        <ele>64.6</ele>
        <time>2013-12-01T09:27:45Z</time>
      </trkpt>
      <trkpt lat="49.98649" lon="2.46195">
        <ele>65.2</ele>
        <time>2013-12-01T09:27:54Z</time>
      </trkpt>
      <trkpt lat="49.98642" lon="2.46213">
        <ele>65.8</ele>
        <time>2013-12-01T09:28:02Z</time>
      </trkpt>
      <trkpt lat="49.98639" lon="2.46235">
        <ele>66.3</ele>
        <time>2013-12-01T09:28:13Z</time>
      </trkpt>
      <trkpt lat="49.98633" lon="2.46255">
        <ele>66.9</ele>
        <time>2013-12-01T09:28:28Z</time>
      </trkpt>
      <trkpt lat="49.9863" lon="2.46276">
        <ele>67.4</ele>
        <time>2013-12-01T09:28:39Z</time>
      </trkpt>
      <trkpt lat="49.98625" lon="2.46296">
        <ele>67.8</ele>
        <time>2013-12-01T09:28:49Z</time>
      </trkpt>
      <trkpt lat="49.9862" lon="2.46316">
        <ele>68.2</ele>
        <time>2013-12-01T09:28:59Z</time>
      </trkpt>
      <trkpt lat="49.98616" lon="2.46336">
        <ele>68.6</ele>
        <time>2013-12-01T09:29:09Z</time>
      </trkpt>
      <trkpt lat="49.98613" lon="2.46357">
        <ele>69.3</ele>
        <time>2013-12-01T09:29:19Z</time>
      </trkpt>
      <trkpt lat="49.9861" lon="2.4638">
        <ele>71.2</ele>
        <time>2013-12-01T09:29:32Z</time>
      </trkpt>
      <trkpt lat="49.98603" lon="2.464">
        <ele>69.3</ele>
        <time>2013-12-01T09:29:44Z</time>
      </trkpt>
      <trkpt lat="49.98591" lon="2.46413">
        <ele>69.9</ele>
        <time>2013-12-01T09:29:52Z</time>
      </trkpt>
      <trkpt lat="49.98579" lon="2.46424">
        <ele>71.2</ele>
        <time>2013-12-01T09:30:08Z</time>
      </trkpt>
      <trkpt lat="49.98566" lon="2.46433">
        <ele>72.1</ele>
        <time>2013-12-01T09:30:19Z</time>
      </trkpt>
      <trkpt lat="49.98554" lon="2.46445">
        <ele>72.9</ele>
        <time>2013-12-01T09:30:30Z</time>
      </trkpt>
      <trkpt lat="49.98543" lon="2.46462">
        <ele>73.6</ele>
        <time>2013-12-01T09:30:38Z</time>
      </trkpt>
      <trkpt lat="49.9853" lon="2.46472">
        <ele>74.7</ele>
        <time>2013-12-01T09:30:50Z</time>
      </trkpt>
      <trkpt lat="49.98519" lon="2.46489">
        <ele>75.5</ele>
        <time>2013-12-01T09:30:59Z</time>
      </trkpt>
      <trkpt lat="49.98513" lon="2.46509">
        <ele>76.3</ele>
        <time>2013-12-01T09:31:07Z</time>
      </trkpt>
      <trkpt lat="49.98505" lon="2.46527">
        <ele>77.4</ele>
        <time>2013-12-01T09:31:19Z</time>
      </trkpt>
      <trkpt lat="49.98501" lon="2.46547">
        <ele>78.3</ele>
        <time>2013-12-01T09:31:28Z</time>
      </trkpt>
      <trkpt lat="49.98493" lon="2.46566">
        <ele>79.7</ele>
        <time>2013-12-01T09:31:38Z</time>
      </trkpt>
      <trkpt lat="49.98483" lon="2.46582">
        <ele>80.2</ele>
        <time>2013-12-01T09:31:53Z</time>
      </trkpt>
      <trkpt lat="49.98471" lon="2.46594">
        <ele>78.7</ele>
        <time>2013-12-01T09:32:04Z</time>
      </trkpt>
      <trkpt lat="49.9846" lon="2.46588">
        <ele>78.4</ele>
        <time>2013-12-01T09:32:16Z</time>
      </trkpt>
      <trkpt lat="49.98453" lon="2.46607">
        <ele>79</ele>
        <time>2013-12-01T09:32:24Z</time>
      </trkpt>
      <trkpt lat="49.98448" lon="2.46627">
        <ele>79.4</ele>
        <time>2013-12-01T09:32:31Z</time>
      </trkpt>
      <trkpt lat="49.98442" lon="2.46648">
        <ele>80.2</ele>
        <time>2013-12-01T09:32:43Z</time>
      </trkpt>
      <trkpt lat="49.98434" lon="2.46666">
        <ele>81</ele>
        <time>2013-12-01T09:32:56Z</time>
      </trkpt>
      <trkpt lat="49.98433" lon="2.46688">
        <ele>81.7</ele>
        <time>2013-12-01T09:33:07Z</time>
      </trkpt>
      <trkpt lat="49.9843" lon="2.46709">
        <ele>82.5</ele>
        <time>2013-12-01T09:33:15Z</time>
      </trkpt>
      <trkpt lat="49.98433" lon="2.46732">
        <ele>84.2</ele>
        <time>2013-12-01T09:33:24Z</time>
      </trkpt>
      <trkpt lat="49.98438" lon="2.46754">
        <ele>85.8</ele>
        <time>2013-12-01T09:33:33Z</time>
      </trkpt>
      <trkpt lat="49.98441" lon="2.46776">
        <ele>90.7</ele>
        <time>2013-12-01T09:33:43Z</time>
      </trkpt>
      <trkpt lat="49.98442" lon="2.46798">
        <ele>92.7</ele>
        <time>2013-12-01T09:33:55Z</time>
      </trkpt>
      <trkpt lat="49.98448" lon="2.46819">
        <ele>94.6</ele>
        <time>2013-12-01T09:34:09Z</time>
      </trkpt>
      <trkpt lat="49.98447" lon="2.46841">
        <ele>91.1</ele>
        <time>2013-12-01T09:34:20Z</time>
      </trkpt>
      <trkpt lat="49.98444" lon="2.46862">
        <ele>91.7</ele>
        <time>2013-12-01T09:34:30Z</time>
      </trkpt>
      <trkpt lat="49.98438" lon="2.46882">
        <ele>93</ele>
        <time>2013-12-01T09:34:41Z</time>
      </trkpt>
      <trkpt lat="49.98447" lon="2.46904">
        <ele>94.5</ele>
        <time>2013-12-01T09:34:49Z</time>
      </trkpt>
      <trkpt lat="49.98448" lon="2.46908">
        <ele>95.2</ele>
        <time>2013-12-01T09:34:53Z</time>
      </trkpt>
      <trkpt lat="49.98436" lon="2.46921">
        <ele>97.8</ele>
        <time>2013-12-01T09:35:02Z</time>
      </trkpt>
      <trkpt lat="49.98425" lon="2.46935">
        <ele>97</ele>
        <time>2013-12-01T09:35:14Z</time>
      </trkpt>
      <trkpt lat="49.98385" lon="2.46929">
        <ele>97.2</ele>
        <time>2013-12-01T09:35:23Z</time>
      </trkpt>
      <trkpt lat="49.98358" lon="2.4691">
        <ele>96</ele>
        <time>2013-12-01T09:36:53Z</time>
      </trkpt>
      <trkpt lat="49.98357" lon="2.46911">
        <ele>96.4</ele>
        <time>2013-12-01T09:36:54Z</time>
      </trkpt>
      <trkpt lat="49.98354" lon="2.46933">
        <ele>98</ele>
        <time>2013-12-01T09:37:05Z</time>
      </trkpt>
      <trkpt lat="49.98354" lon="2.46954">
        <ele>96.5</ele>
        <time>2013-12-01T09:37:16Z</time>
      </trkpt>
      <trkpt lat="49.98349" lon="2.46975">
        <ele>95.3</ele>
        <time>2013-12-01T09:37:28Z</time>
      </trkpt>
      <trkpt lat="49.98346" lon="2.46996">
        <ele>98.3</ele>
        <time>2013-12-01T09:37:40Z</time>
      </trkpt>
      <trkpt lat="49.98343" lon="2.47006">
        <ele>99</ele>
        <time>2013-12-01T09:37:46Z</time>
      </trkpt>
      <trkpt lat="49.98347" lon="2.47028">
        <ele>99.8</ele>
        <time>2013-12-01T09:37:52Z</time>
      </trkpt>
      <trkpt lat="49.98346" lon="2.4705">
        <ele>100.9</ele>
        <time>2013-12-01T09:38:00Z</time>
      </trkpt>
      <trkpt lat="49.98346" lon="2.47072">
        <ele>102.6</ele>
        <time>2013-12-01T09:38:10Z</time>
      </trkpt>
      <trkpt lat="49.98341" lon="2.47091">
        <ele>104.6</ele>
        <time>2013-12-01T09:38:23Z</time>
      </trkpt>
      <trkpt lat="49.98341" lon="2.47113">
        <ele>105.7</ele>
        <time>2013-12-01T09:38:33Z</time>
      </trkpt>
      <trkpt lat="49.98342" lon="2.47136">
        <ele>108.2</ele>
        <time>2013-12-01T09:38:48Z</time>
      </trkpt>
      <trkpt lat="49.98343" lon="2.47158">
        <ele>111.9</ele>
        <time>2013-12-01T09:38:56Z</time>
      </trkpt>
      <trkpt lat="49.98354" lon="2.47174">
        <ele>112.2</ele>
        <time>2013-12-01T09:39:17Z</time>
      </trkpt>
      <trkpt lat="49.98365" lon="2.47189">
        <ele>113.5</ele>
        <time>2013-12-01T09:39:26Z</time>
      </trkpt>
      <trkpt lat="49.98376" lon="2.47202">
        <ele>115.5</ele>
        <time>2013-12-01T09:39:37Z</time>
      </trkpt>
      <trkpt lat="49.98386" lon="2.47215">
        <ele>116.5</ele>
        <time>2013-12-01T09:39:46Z</time>
      </trkpt>
      <trkpt lat="49.98386" lon="2.47227">
        <ele>117.1</ele>
        <time>2013-12-01T09:39:52Z</time>
      </trkpt>
      <trkpt lat="49.984" lon="2.47233">
        <ele>117.5</ele>
        <time>2013-12-01T09:39:58Z</time>
      </trkpt>
      <trkpt lat="49.98407" lon="2.4725">
        <ele>118.3</ele>
        <time>2013-12-01T09:40:09Z</time>
      </trkpt>
      <trkpt lat="49.98406" lon="2.47274">
        <ele>119.2</ele>
        <time>2013-12-01T09:40:21Z</time>
      </trkpt>
      <trkpt lat="49.98409" lon="2.47294">
        <ele>119.5</ele>
        <time>2013-12-01T09:40:26Z</time>
      </trkpt>
      <trkpt lat="49.98409" lon="2.47311">
        <ele>120</ele>
        <time>2013-12-01T09:40:32Z</time>
      </trkpt>
      <trkpt lat="49.98398" lon="2.47312">
        <ele>117.6</ele>
        <time>2013-12-01T09:40:39Z</time>
      </trkpt>
      <trkpt lat="49.98403" lon="2.47335">
        <ele>119.8</ele>
        <time>2013-12-01T09:40:44Z</time>
      </trkpt>
      <trkpt lat="49.984" lon="2.47343">
        <ele>119.1</ele>
        <time>2013-12-01T09:40:47Z</time>
      </trkpt>
      <trkpt lat="49.98387" lon="2.47353">
        <ele>116.9</ele>
        <time>2013-12-01T09:40:56Z</time>
      </trkpt>
      <trkpt lat="49.98377" lon="2.4737">
        <ele>115.1</ele>
        <time>2013-12-01T09:41:08Z</time>
      </trkpt>
      <trkpt lat="49.9837" lon="2.47389">
        <ele>114.2</ele>
        <time>2013-12-01T09:41:16Z</time>
      </trkpt>
      <trkpt lat="49.98358" lon="2.47401">
        <ele>113.3</ele>
        <time>2013-12-01T09:41:27Z</time>
      </trkpt>
      <trkpt lat="49.98346" lon="2.47405">
        <ele>115</ele>
        <time>2013-12-01T09:41:32Z</time>
      </trkpt>
      <trkpt lat="49.98344" lon="2.47427">
        <ele>117.3</ele>
        <time>2013-12-01T09:41:41Z</time>
      </trkpt>
      <trkpt lat="49.98334" lon="2.47444">
        <ele>118.9</ele>
        <time>2013-12-01T09:41:59Z</time>
      </trkpt>
      <trkpt lat="49.98329" lon="2.47465">
        <ele>119.7</ele>
        <time>2013-12-01T09:42:08Z</time>
      </trkpt>
      <trkpt lat="49.98325" lon="2.47487">
        <ele>120.6</ele>
        <time>2013-12-01T09:42:19Z</time>
      </trkpt>
      <trkpt lat="49.98321" lon="2.47508">
        <ele>120.7</ele>
        <time>2013-12-01T09:42:27Z</time>
      </trkpt>
      <trkpt lat="49.98316" lon="2.47527">
        <ele>119.4</ele>
        <time>2013-12-01T09:42:43Z</time>
      </trkpt>
      <trkpt lat="49.98325" lon="2.47545">
        <ele>118.7</ele>
        <time>2013-12-01T09:42:52Z</time>
      </trkpt>
      <trkpt lat="49.98316" lon="2.47565">
        <ele>116.6</ele>
        <time>2013-12-01T09:43:03Z</time>
      </trkpt>
      <trkpt lat="49.98316" lon="2.47565">
        <ele>116.6</ele>
        <time>2013-12-01T09:43:38Z</time>
      </trkpt>
      <trkpt lat="49.98307" lon="2.47578">
        <ele>114.8</ele>
        <time>2013-12-01T09:43:42Z</time>
      </trkpt>
      <trkpt lat="49.98293" lon="2.47571">
        <ele>113.5</ele>
        <time>2013-12-01T09:43:52Z</time>
      </trkpt>
      <trkpt lat="49.9829" lon="2.47572">
        <ele>113.3</ele>
        <time>2013-12-01T09:43:54Z</time>
      </trkpt>
      <trkpt lat="49.98303" lon="2.47584">
        <ele>113.7</ele>
        <time>2013-12-01T09:44:00Z</time>
      </trkpt>
      <trkpt lat="49.98312" lon="2.47624">
        <ele>120.1</ele>
        <time>2013-12-01T09:44:20Z</time>
      </trkpt>
      <trkpt lat="49.98312" lon="2.47624">
        <ele>120.1</ele>
        <time>2013-12-01T09:45:16Z</time>
      </trkpt>
      <trkpt lat="49.98317" lon="2.47644">
        <ele>122</ele>
        <time>2013-12-01T09:45:16Z</time>
      </trkpt>
      <trkpt lat="49.98316" lon="2.47665">
        <ele>125</ele>
        <time>2013-12-01T09:45:21Z</time>
      </trkpt>
      <trkpt lat="49.98317" lon="2.47686">
        <ele>124.8</ele>
        <time>2013-12-01T09:45:31Z</time>
      </trkpt>
      <trkpt lat="49.98319" lon="2.47707">
        <ele>124.6</ele>
        <time>2013-12-01T09:45:41Z</time>
      </trkpt>
      <trkpt lat="49.98323" lon="2.47727">
        <ele>124.3</ele>
        <time>2013-12-01T09:45:53Z</time>
      </trkpt>
      <trkpt lat="49.98324" lon="2.47749">
        <ele>124</ele>
        <time>2013-12-01T09:46:07Z</time>
      </trkpt>
      <trkpt lat="49.98324" lon="2.47771">
        <ele>124</ele>
        <time>2013-12-01T09:46:18Z</time>
      </trkpt>
      <trkpt lat="49.98325" lon="2.47793">
        <ele>124</ele>
        <time>2013-12-01T09:46:25Z</time>
      </trkpt>
      <trkpt lat="49.98325" lon="2.47815">
        <ele>122.7</ele>
        <time>2013-12-01T09:46:35Z</time>
      </trkpt>
      <trkpt lat="49.98324" lon="2.47837">
        <ele>119.7</ele>
        <time>2013-12-01T09:46:45Z</time>
      </trkpt>
      <trkpt lat="49.98324" lon="2.47858">
        <ele>118.3</ele>
        <time>2013-12-01T09:46:55Z</time>
      </trkpt>
      <trkpt lat="49.98334" lon="2.47878">
        <ele>118</ele>
        <time>2013-12-01T09:46:57Z</time>
      </trkpt>
      <trkpt lat="49.98331" lon="2.47884">
        <ele>117.4</ele>
        <time>2013-12-01T09:47:01Z</time>
      </trkpt>
      <trkpt lat="49.98332" lon="2.47905">
        <ele>116.2</ele>
        <time>2013-12-01T09:47:13Z</time>
      </trkpt>
      <trkpt lat="49.98326" lon="2.47926">
        <ele>115.2</ele>
        <time>2013-12-01T09:47:24Z</time>
      </trkpt>
      <trkpt lat="49.98319" lon="2.47945">
        <ele>116.4</ele>
        <time>2013-12-01T09:47:34Z</time>
      </trkpt>
      <trkpt lat="49.98318" lon="2.47967">
        <ele>118.1</ele>
        <time>2013-12-01T09:47:45Z</time>
      </trkpt>
      <trkpt lat="49.98328" lon="2.47986">
        <ele>119.2</ele>
        <time>2013-12-01T09:47:53Z</time>
      </trkpt>
      <trkpt lat="49.98336" lon="2.48004">
        <ele>120.3</ele>
        <time>2013-12-01T09:48:00Z</time>
      </trkpt>
      <trkpt lat="49.98339" lon="2.48025">
        <ele>123.2</ele>
        <time>2013-12-01T09:48:10Z</time>
      </trkpt>
      <trkpt lat="49.98341" lon="2.48047">
        <ele>123.8</ele>
        <time>2013-12-01T09:48:21Z</time>
      </trkpt>
      <trkpt lat="49.98338" lon="2.48069">
        <ele>121.4</ele>
        <time>2013-12-01T09:48:33Z</time>
      </trkpt>
      <trkpt lat="49.9834" lon="2.48091">
        <ele>120.2</ele>
        <time>2013-12-01T09:48:42Z</time>
      </trkpt>
      <trkpt lat="49.98345" lon="2.48111">
        <ele>119.2</ele>
        <time>2013-12-01T09:48:50Z</time>
      </trkpt>
      <trkpt lat="49.98345" lon="2.48132">
        <ele>118</ele>
        <time>2013-12-01T09:49:00Z</time>
      </trkpt>
      <trkpt lat="49.98344" lon="2.48154">
        <ele>122.7</ele>
        <time>2013-12-01T09:49:10Z</time>
      </trkpt>
      <trkpt lat="49.98351" lon="2.48173">
        <ele>119.5</ele>
        <time>2013-12-01T09:49:19Z</time>
      </trkpt>
      <trkpt lat="49.9836" lon="2.48191">
        <ele>117.9</ele>
        <time>2013-12-01T09:49:24Z</time>
      </trkpt>
      <trkpt lat="49.98359" lon="2.48213">
        <ele>117.3</ele>
        <time>2013-12-01T09:49:36Z</time>
      </trkpt>
      <trkpt lat="49.98356" lon="2.48235">
        <ele>116.8</ele>
        <time>2013-12-01T09:49:46Z</time>
      </trkpt>
      <trkpt lat="49.98357" lon="2.48257">
        <ele>116.3</ele>
        <time>2013-12-01T09:49:57Z</time>
      </trkpt>
      <trkpt lat="49.98355" lon="2.48278">
        <ele>115.7</ele>
        <time>2013-12-01T09:50:09Z</time>
      </trkpt>
      <trkpt lat="49.98359" lon="2.48299">
        <ele>115.1</ele>
        <time>2013-12-01T09:50:21Z</time>
      </trkpt>
      <trkpt lat="49.98359" lon="2.48322">
        <ele>114.3</ele>
        <time>2013-12-01T09:50:31Z</time>
      </trkpt>
      <trkpt lat="49.98359" lon="2.48344">
        <ele>113.3</ele>
        <time>2013-12-01T09:50:41Z</time>
      </trkpt>
      <trkpt lat="49.9836" lon="2.48367">
        <ele>112.4</ele>
        <time>2013-12-01T09:50:51Z</time>
      </trkpt>
      <trkpt lat="49.98359" lon="2.48387">
        <ele>111.3</ele>
        <time>2013-12-01T09:51:03Z</time>
      </trkpt>
      <trkpt lat="49.98359" lon="2.48409">
        <ele>111</ele>
        <time>2013-12-01T09:51:13Z</time>
      </trkpt>
      <trkpt lat="49.9836" lon="2.48431">
        <ele>110.2</ele>
        <time>2013-12-01T09:51:24Z</time>
      </trkpt>
      <trkpt lat="49.98362" lon="2.48452">
        <ele>109</ele>
        <time>2013-12-01T09:51:35Z</time>
      </trkpt>
      <trkpt lat="49.98366" lon="2.48472">
        <ele>108.1</ele>
        <time>2013-12-01T09:51:43Z</time>
      </trkpt>
      <trkpt lat="49.98365" lon="2.48495">
        <ele>105.3</ele>
        <time>2013-12-01T09:51:54Z</time>
      </trkpt>
      <trkpt lat="49.98366" lon="2.48516">
        <ele>106</ele>
        <time>2013-12-01T09:52:04Z</time>
      </trkpt>
      <trkpt lat="49.9837" lon="2.48537">
        <ele>107</ele>
        <time>2013-12-01T09:52:14Z</time>
      </trkpt>
      <trkpt lat="49.98371" lon="2.4856">
        <ele>108</ele>
        <time>2013-12-01T09:52:23Z</time>
      </trkpt>
      <trkpt lat="49.98374" lon="2.48582">
        <ele>109.5</ele>
        <time>2013-12-01T09:52:33Z</time>
      </trkpt>
      <trkpt lat="49.98364" lon="2.48598">
        <ele>111.8</ele>
        <time>2013-12-01T09:52:49Z</time>
      </trkpt>
      <trkpt lat="49.98351" lon="2.48595">
        <ele>113.6</ele>
        <time>2013-12-01T09:53:01Z</time>
      </trkpt>
      <trkpt lat="49.98337" lon="2.48589">
        <ele>115.5</ele>
        <time>2013-12-01T09:53:14Z</time>
      </trkpt>
      <trkpt lat="49.98324" lon="2.48587">
        <ele>116.7</ele>
        <time>2013-12-01T09:53:22Z</time>
      </trkpt>
      <trkpt lat="49.98313" lon="2.48607">
        <ele>117.7</ele>
        <time>2013-12-01T09:53:25Z</time>
      </trkpt>
      <trkpt lat="49.98309" lon="2.4861">
        <ele>119.4</ele>
        <time>2013-12-01T09:53:28Z</time>
      </trkpt>
      <trkpt lat="49.98311" lon="2.48604">
        <ele>119.2</ele>
        <time>2013-12-01T09:53:32Z</time>
      </trkpt>
      <trkpt lat="49.98296" lon="2.48604">
        <ele>117</ele>
        <time>2013-12-01T09:53:42Z</time>
      </trkpt>
      <trkpt lat="49.98283" lon="2.48597">
        <ele>113.4</ele>
        <time>2013-12-01T09:53:51Z</time>
      </trkpt>
      <trkpt lat="49.98272" lon="2.48597">
        <ele>116.3</ele>
        <time>2013-12-01T09:53:57Z</time>
      </trkpt>
      <trkpt lat="49.98258" lon="2.48596">
        <ele>118.5</ele>
        <time>2013-12-01T09:54:05Z</time>
      </trkpt>
      <trkpt lat="49.98244" lon="2.48594">
        <ele>116.9</ele>
        <time>2013-12-01T09:54:18Z</time>
      </trkpt>
      <trkpt lat="49.98229" lon="2.48593">
        <ele>116.4</ele>
        <time>2013-12-01T09:54:29Z</time>
      </trkpt>
      <trkpt lat="49.98215" lon="2.48595">
        <ele>118</ele>
        <time>2013-12-01T09:54:38Z</time>
      </trkpt>
      <trkpt lat="49.98202" lon="2.48593">
        <ele>121.2</ele>
        <time>2013-12-01T09:54:46Z</time>
      </trkpt>
      <trkpt lat="49.98187" lon="2.48592">
        <ele>124</ele>
        <time>2013-12-01T09:54:56Z</time>
      </trkpt>
      <trkpt lat="49.98173" lon="2.48599">
        <ele>124.8</ele>
        <time>2013-12-01T09:55:05Z</time>
      </trkpt>
      <trkpt lat="49.98159" lon="2.48606">
        <ele>124.3</ele>
        <time>2013-12-01T09:55:14Z</time>
      </trkpt>
      <trkpt lat="49.98145" lon="2.48603">
        <ele>123</ele>
        <time>2013-12-01T09:55:30Z</time>
      </trkpt>
      <trkpt lat="49.98132" lon="2.486">
        <ele>125.2</ele>
        <time>2013-12-01T09:55:43Z</time>
      </trkpt>
      <trkpt lat="49.98138" lon="2.48585">
        <ele>128</ele>
        <time>2013-12-01T09:55:59Z</time>
      </trkpt>
      <trkpt lat="49.98153" lon="2.48589">
        <ele>127</ele>
        <time>2013-12-01T09:56:06Z</time>
      </trkpt>
      <trkpt lat="49.98168" lon="2.48591">
        <ele>126.6</ele>
        <time>2013-12-01T09:56:09Z</time>
      </trkpt>
      <trkpt lat="49.98182" lon="2.48595">
        <ele>126.5</ele>
        <time>2013-12-01T09:56:10Z</time>
      </trkpt>
      <trkpt lat="49.98196" lon="2.486">
        <ele>125.8</ele>
        <time>2013-12-01T09:56:15Z</time>
      </trkpt>
      <trkpt lat="49.98195" lon="2.48595">
        <ele>125.4</ele>
        <time>2013-12-01T09:56:18Z</time>
      </trkpt>
      <trkpt lat="49.98182" lon="2.48587">
        <ele>125</ele>
        <time>2013-12-01T09:56:21Z</time>
      </trkpt>
      <trkpt lat="49.98166" lon="2.48586">
        <ele>124.6</ele>
        <time>2013-12-01T09:56:28Z</time>
      </trkpt>
      <trkpt lat="49.98153" lon="2.48597">
        <ele>123.9</ele>
        <time>2013-12-01T09:56:40Z</time>
      </trkpt>
      <trkpt lat="49.98148" lon="2.48597">
        <ele>122.3</ele>
        <time>2013-12-01T09:56:59Z</time>
      </trkpt>
      <trkpt lat="49.98148" lon="2.48597">
        <ele>122.3</ele>
        <time>2013-12-01T10:02:25Z</time>
      </trkpt>
      <trkpt lat="49.98157" lon="2.48595">
        <ele>121.5</ele>
        <time>2013-12-01T10:02:28Z</time>
      </trkpt>
      <trkpt lat="49.9817" lon="2.48604">
        <ele>121.8</ele>
        <time>2013-12-01T10:02:40Z</time>
      </trkpt>
      <trkpt lat="49.98178" lon="2.48591">
        <ele>122.9</ele>
        <time>2013-12-01T10:02:51Z</time>
      </trkpt>
      <trkpt lat="49.98165" lon="2.48593">
        <ele>123.1</ele>
        <time>2013-12-01T10:02:52Z</time>
      </trkpt>
      <trkpt lat="49.98145" lon="2.48595">
        <ele>124.1</ele>
        <time>2013-12-01T10:03:04Z</time>
      </trkpt>
      <trkpt lat="49.98145" lon="2.48595">
        <ele>124.1</ele>
        <time>2013-12-01T10:14:46Z</time>
      </trkpt>
      <trkpt lat="49.98146" lon="2.48591">
        <ele>123.3</ele>
        <time>2013-12-01T10:14:48Z</time>
      </trkpt>
      <trkpt lat="49.98154" lon="2.48608">
        <ele>123.2</ele>
        <time>2013-12-01T10:14:55Z</time>
      </trkpt>
      <trkpt lat="49.98157" lon="2.4863">
        <ele>122.9</ele>
        <time>2013-12-01T10:15:05Z</time>
      </trkpt>
      <trkpt lat="49.98156" lon="2.48652">
        <ele>122.5</ele>
        <time>2013-12-01T10:15:20Z</time>
      </trkpt>
      <trkpt lat="49.98155" lon="2.48675">
        <ele>122.2</ele>
        <time>2013-12-01T10:15:30Z</time>
      </trkpt>
      <trkpt lat="49.98154" lon="2.48696">
        <ele>122</ele>
        <time>2013-12-01T10:15:39Z</time>
      </trkpt>
      <trkpt lat="49.98154" lon="2.48717">
        <ele>121.8</ele>
        <time>2013-12-01T10:15:49Z</time>
      </trkpt>
      <trkpt lat="49.98159" lon="2.48737">
        <ele>121.5</ele>
        <time>2013-12-01T10:15:58Z</time>
      </trkpt>
      <trkpt lat="49.98162" lon="2.4876">
        <ele>121.2</ele>
        <time>2013-12-01T10:16:10Z</time>
      </trkpt>
      <trkpt lat="49.9817" lon="2.48781">
        <ele>121</ele>
        <time>2013-12-01T10:16:20Z</time>
      </trkpt>
      <trkpt lat="49.98174" lon="2.48802">
        <ele>120.7</ele>
        <time>2013-12-01T10:16:30Z</time>
      </trkpt>
      <trkpt lat="49.98173" lon="2.48823">
        <ele>120.4</ele>
        <time>2013-12-01T10:16:41Z</time>
      </trkpt>
      <trkpt lat="49.98173" lon="2.48846">
        <ele>120</ele>
        <time>2013-12-01T10:16:56Z</time>
      </trkpt>
      <trkpt lat="49.98172" lon="2.48869">
        <ele>119.4</ele>
        <time>2013-12-01T10:17:03Z</time>
      </trkpt>
      <trkpt lat="49.98177" lon="2.4889">
        <ele>118.3</ele>
        <time>2013-12-01T10:17:13Z</time>
      </trkpt>
      <trkpt lat="49.98186" lon="2.48908">
        <ele>117.3</ele>
        <time>2013-12-01T10:17:22Z</time>
      </trkpt>
      <trkpt lat="49.98196" lon="2.48925">
        <ele>116.6</ele>
        <time>2013-12-01T10:17:32Z</time>
      </trkpt>
      <trkpt lat="49.98195" lon="2.48943">
        <ele>113</ele>
        <time>2013-12-01T10:17:41Z</time>
      </trkpt>
      <trkpt lat="49.98203" lon="2.48963">
        <ele>112.3</ele>
        <time>2013-12-01T10:17:56Z</time>
      </trkpt>
      <trkpt lat="49.98213" lon="2.48978">
        <ele>111.6</ele>
        <time>2013-12-01T10:18:06Z</time>
      </trkpt>
      <trkpt lat="49.98219" lon="2.48998">
        <ele>110.2</ele>
        <time>2013-12-01T10:18:17Z</time>
      </trkpt>
      <trkpt lat="49.98221" lon="2.49018">
        <ele>110</ele>
        <time>2013-12-01T10:18:26Z</time>
      </trkpt>
      <trkpt lat="49.98229" lon="2.49038">
        <ele>109.4</ele>
        <time>2013-12-01T10:18:36Z</time>
      </trkpt>
      <trkpt lat="49.98238" lon="2.49054">
        <ele>108.6</ele>
        <time>2013-12-01T10:18:43Z</time>
      </trkpt>
      <trkpt lat="49.98244" lon="2.49074">
        <ele>107.1</ele>
        <time>2013-12-01T10:18:57Z</time>
      </trkpt>
      <trkpt lat="49.98252" lon="2.49092">
        <ele>102.8</ele>
        <time>2013-12-01T10:19:10Z</time>
      </trkpt>
      <trkpt lat="49.98257" lon="2.49113">
        <ele>99.5</ele>
        <time>2013-12-01T10:19:23Z</time>
      </trkpt>
      <trkpt lat="49.98265" lon="2.49131">
        <ele>98.3</ele>
        <time>2013-12-01T10:19:32Z</time>
      </trkpt>
      <trkpt lat="49.98274" lon="2.49149">
        <ele>97.3</ele>
        <time>2013-12-01T10:19:41Z</time>
      </trkpt>
      <trkpt lat="49.98278" lon="2.4917">
        <ele>96.2</ele>
        <time>2013-12-01T10:19:51Z</time>
      </trkpt>
      <trkpt lat="49.98283" lon="2.49192">
        <ele>96</ele>
        <time>2013-12-01T10:20:02Z</time>
      </trkpt>
      <trkpt lat="49.98287" lon="2.49214">
        <ele>93.9</ele>
        <time>2013-12-01T10:20:15Z</time>
      </trkpt>
      <trkpt lat="49.98299" lon="2.49232">
        <ele>93.2</ele>
        <time>2013-12-01T10:20:22Z</time>
      </trkpt>
      <trkpt lat="49.98311" lon="2.49246">
        <ele>94.3</ele>
        <time>2013-12-01T10:20:32Z</time>
      </trkpt>
      <trkpt lat="49.98317" lon="2.49266">
        <ele>95.8</ele>
        <time>2013-12-01T10:20:41Z</time>
      </trkpt>
      <trkpt lat="49.9832" lon="2.49288">
        <ele>98.2</ele>
        <time>2013-12-01T10:20:50Z</time>
      </trkpt>
      <trkpt lat="49.98324" lon="2.49309">
        <ele>99.4</ele>
        <time>2013-12-01T10:21:00Z</time>
      </trkpt>
      <trkpt lat="49.98335" lon="2.49322">
        <ele>100.2</ele>
        <time>2013-12-01T10:21:13Z</time>
      </trkpt>
      <trkpt lat="49.98337" lon="2.49343">
        <ele>100.9</ele>
        <time>2013-12-01T10:21:25Z</time>
      </trkpt>
      <trkpt lat="49.98343" lon="2.49364">
        <ele>102.3</ele>
        <time>2013-12-01T10:21:35Z</time>
      </trkpt>
      <trkpt lat="49.98347" lon="2.49386">
        <ele>103.4</ele>
        <time>2013-12-01T10:21:44Z</time>
      </trkpt>
      <trkpt lat="49.98349" lon="2.49408">
        <ele>103.9</ele>
        <time>2013-12-01T10:21:53Z</time>
      </trkpt>
      <trkpt lat="49.98348" lon="2.49431">
        <ele>101.1</ele>
        <time>2013-12-01T10:22:07Z</time>
      </trkpt>
      <trkpt lat="49.98349" lon="2.49454">
        <ele>101.9</ele>
        <time>2013-12-01T10:22:17Z</time>
      </trkpt>
      <trkpt lat="49.98353" lon="2.49474">
        <ele>102.5</ele>
        <time>2013-12-01T10:22:26Z</time>
      </trkpt>
      <trkpt lat="49.98356" lon="2.49496">
        <ele>103.2</ele>
        <time>2013-12-01T10:22:35Z</time>
      </trkpt>
      <trkpt lat="49.98364" lon="2.49515">
        <ele>103.8</ele>
        <time>2013-12-01T10:22:44Z</time>
      </trkpt>
      <trkpt lat="49.98369" lon="2.49534">
        <ele>104.7</ele>
        <time>2013-12-01T10:22:56Z</time>
      </trkpt>
      <trkpt lat="49.98382" lon="2.49546">
        <ele>104.7</ele>
        <time>2013-12-01T10:23:02Z</time>
      </trkpt>
      <trkpt lat="49.98392" lon="2.49562">
        <ele>102.8</ele>
        <time>2013-12-01T10:23:15Z</time>
      </trkpt>
      <trkpt lat="49.98398" lon="2.49582">
        <ele>101.1</ele>
        <time>2013-12-01T10:23:28Z</time>
      </trkpt>
      <trkpt lat="49.98405" lon="2.496">
        <ele>102.3</ele>
        <time>2013-12-01T10:23:37Z</time>
      </trkpt>
      <trkpt lat="49.98415" lon="2.49616">
        <ele>103.3</ele>
        <time>2013-12-01T10:23:45Z</time>
      </trkpt>
      <trkpt lat="49.98425" lon="2.49632">
        <ele>104.1</ele>
        <time>2013-12-01T10:23:51Z</time>
      </trkpt>
      <trkpt lat="49.98439" lon="2.49643">
        <ele>105.2</ele>
        <time>2013-12-01T10:24:00Z</time>
      </trkpt>
      <trkpt lat="49.9845" lon="2.49656">
        <ele>107.4</ele>
        <time>2013-12-01T10:24:10Z</time>
      </trkpt>
      <trkpt lat="49.9846" lon="2.49673">
        <ele>110.9</ele>
        <time>2013-12-01T10:24:20Z</time>
      </trkpt>
      <trkpt lat="49.98472" lon="2.49685">
        <ele>113.1</ele>
        <time>2013-12-01T10:24:29Z</time>
      </trkpt>
      <trkpt lat="49.98482" lon="2.49699">
        <ele>115.1</ele>
        <time>2013-12-01T10:24:40Z</time>
      </trkpt>
      <trkpt lat="49.98495" lon="2.49707">
        <ele>116.3</ele>
        <time>2013-12-01T10:24:46Z</time>
      </trkpt>
      <trkpt lat="49.98509" lon="2.49712">
        <ele>117.7</ele>
        <time>2013-12-01T10:24:52Z</time>
      </trkpt>
      <trkpt lat="49.98522" lon="2.49719">
        <ele>120.3</ele>
        <time>2013-12-01T10:24:59Z</time>
      </trkpt>
      <trkpt lat="49.98535" lon="2.49726">
        <ele>121.4</ele>
        <time>2013-12-01T10:25:07Z</time>
      </trkpt>
      <trkpt lat="49.98548" lon="2.49733">
        <ele>125</ele>
        <time>2013-12-01T10:25:16Z</time>
      </trkpt>
      <trkpt lat="49.98563" lon="2.49737">
        <ele>125</ele>
        <time>2013-12-01T10:25:23Z</time>
      </trkpt>
      <trkpt lat="49.98575" lon="2.49747">
        <ele>125</ele>
        <time>2013-12-01T10:25:32Z</time>
      </trkpt>
      <trkpt lat="49.98586" lon="2.49759">
        <ele>125</ele>
        <time>2013-12-01T10:25:43Z</time>
      </trkpt>
      <trkpt lat="49.98599" lon="2.49766">
        <ele>124.9</ele>
        <time>2013-12-01T10:25:52Z</time>
      </trkpt>
      <trkpt lat="49.98614" lon="2.49774">
        <ele>123.7</ele>
        <time>2013-12-01T10:26:04Z</time>
      </trkpt>
      <trkpt lat="49.98627" lon="2.49782">
        <ele>122.4</ele>
        <time>2013-12-01T10:26:16Z</time>
      </trkpt>
      <trkpt lat="49.9864" lon="2.4979">
        <ele>122.9</ele>
        <time>2013-12-01T10:26:28Z</time>
      </trkpt>
      <trkpt lat="49.98654" lon="2.49796">
        <ele>123.8</ele>
        <time>2013-12-01T10:26:37Z</time>
      </trkpt>
      <trkpt lat="49.98666" lon="2.49804">
        <ele>124.7</ele>
        <time>2013-12-01T10:26:45Z</time>
      </trkpt>
      <trkpt lat="49.9868" lon="2.49809">
        <ele>124.8</ele>
        <time>2013-12-01T10:26:52Z</time>
      </trkpt>
      <trkpt lat="49.98694" lon="2.49815">
        <ele>124.3</ele>
        <time>2013-12-01T10:27:01Z</time>
      </trkpt>
      <trkpt lat="49.98708" lon="2.49817">
        <ele>123.8</ele>
        <time>2013-12-01T10:27:10Z</time>
      </trkpt>
      <trkpt lat="49.98722" lon="2.49824">
        <ele>123.2</ele>
        <time>2013-12-01T10:27:21Z</time>
      </trkpt>
      <trkpt lat="49.98734" lon="2.49834">
        <ele>122.5</ele>
        <time>2013-12-01T10:27:33Z</time>
      </trkpt>
      <trkpt lat="49.98748" lon="2.49845">
        <ele>122.1</ele>
        <time>2013-12-01T10:27:44Z</time>
      </trkpt>
      <trkpt lat="49.98762" lon="2.4985">
        <ele>123</ele>
        <time>2013-12-01T10:27:54Z</time>
      </trkpt>
      <trkpt lat="49.98775" lon="2.49857">
        <ele>123.9</ele>
        <time>2013-12-01T10:28:04Z</time>
      </trkpt>
      <trkpt lat="49.98789" lon="2.49865">
        <ele>124.6</ele>
        <time>2013-12-01T10:28:13Z</time>
      </trkpt>
      <trkpt lat="49.98802" lon="2.4987">
        <ele>124.4</ele>
        <time>2013-12-01T10:28:23Z</time>
      </trkpt>
      <trkpt lat="49.98815" lon="2.49876">
        <ele>123.5</ele>
        <time>2013-12-01T10:28:32Z</time>
      </trkpt>
      <trkpt lat="49.98828" lon="2.49888">
        <ele>122.4</ele>
        <time>2013-12-01T10:28:42Z</time>
      </trkpt>
      <trkpt lat="49.98841" lon="2.49898">
        <ele>121.5</ele>
        <time>2013-12-01T10:28:51Z</time>
      </trkpt>
      <trkpt lat="49.98855" lon="2.49902">
        <ele>121.9</ele>
        <time>2013-12-01T10:29:01Z</time>
      </trkpt>
      <trkpt lat="49.98868" lon="2.4991">
        <ele>123.8</ele>
        <time>2013-12-01T10:29:11Z</time>
      </trkpt>
      <trkpt lat="49.98882" lon="2.49916">
        <ele>124.6</ele>
        <time>2013-12-01T10:29:21Z</time>
      </trkpt>
      <trkpt lat="49.98895" lon="2.4992">
        <ele>125.2</ele>
        <time>2013-12-01T10:29:30Z</time>
      </trkpt>
      <trkpt lat="49.98909" lon="2.49926">
        <ele>125.9</ele>
        <time>2013-12-01T10:29:40Z</time>
      </trkpt>
      <trkpt lat="49.98923" lon="2.49934">
        <ele>126.5</ele>
        <time>2013-12-01T10:29:50Z</time>
      </trkpt>
      <trkpt lat="49.98935" lon="2.49941">
        <ele>128.2</ele>
        <time>2013-12-01T10:30:00Z</time>
      </trkpt>
      <trkpt lat="49.98949" lon="2.49948">
        <ele>129.8</ele>
        <time>2013-12-01T10:30:10Z</time>
      </trkpt>
      <trkpt lat="49.98963" lon="2.49954">
        <ele>131</ele>
        <time>2013-12-01T10:30:20Z</time>
      </trkpt>
      <trkpt lat="49.98977" lon="2.49961">
        <ele>132.5</ele>
        <time>2013-12-01T10:30:31Z</time>
      </trkpt>
      <trkpt lat="49.9899" lon="2.49969">
        <ele>131.9</ele>
        <time>2013-12-01T10:30:41Z</time>
      </trkpt>
      <trkpt lat="49.99003" lon="2.4998">
        <ele>130.1</ele>
        <time>2013-12-01T10:30:51Z</time>
      </trkpt>
      <trkpt lat="49.99008" lon="2.50002">
        <ele>127.6</ele>
        <time>2013-12-01T10:31:02Z</time>
      </trkpt>
      <trkpt lat="49.99015" lon="2.50021">
        <ele>124.9</ele>
        <time>2013-12-01T10:31:11Z</time>
      </trkpt>
      <trkpt lat="49.99022" lon="2.50039">
        <ele>121.8</ele>
        <time>2013-12-01T10:31:20Z</time>
      </trkpt>
      <trkpt lat="49.99034" lon="2.50051">
        <ele>120.8</ele>
        <time>2013-12-01T10:31:26Z</time>
      </trkpt>
      <trkpt lat="49.9904" lon="2.50064">
        <ele>119.1</ele>
        <time>2013-12-01T10:31:35Z</time>
      </trkpt>
      <trkpt lat="49.99041" lon="2.50084">
        <ele>116.3</ele>
        <time>2013-12-01T10:31:55Z</time>
      </trkpt>
      <trkpt lat="49.99047" lon="2.50103">
        <ele>114.3</ele>
        <time>2013-12-01T10:32:12Z</time>
      </trkpt>
      <trkpt lat="49.99055" lon="2.5012">
        <ele>112.6</ele>
        <time>2013-12-01T10:32:26Z</time>
      </trkpt>
      <trkpt lat="49.99059" lon="2.50142">
        <ele>111.6</ele>
        <time>2013-12-01T10:32:37Z</time>
      </trkpt>
      <trkpt lat="49.99064" lon="2.50164">
        <ele>111.2</ele>
        <time>2013-12-01T10:32:45Z</time>
      </trkpt>
      <trkpt lat="49.99073" lon="2.50181">
        <ele>108.3</ele>
        <time>2013-12-01T10:32:58Z</time>
      </trkpt>
      <trkpt lat="49.99077" lon="2.50203">
        <ele>107.6</ele>
        <time>2013-12-01T10:33:09Z</time>
      </trkpt>
      <trkpt lat="49.99081" lon="2.50224">
        <ele>106.7</ele>
        <time>2013-12-01T10:33:19Z</time>
      </trkpt>
      <trkpt lat="49.99085" lon="2.50244">
        <ele>107.8</ele>
        <time>2013-12-01T10:33:29Z</time>
      </trkpt>
      <trkpt lat="49.99093" lon="2.50257">
        <ele>111</ele>
        <time>2013-12-01T10:33:34Z</time>
      </trkpt>
      <trkpt lat="49.99102" lon="2.50273">
        <ele>115.8</ele>
        <time>2013-12-01T10:33:46Z</time>
      </trkpt>
      <trkpt lat="49.99111" lon="2.5029">
        <ele>117.5</ele>
        <time>2013-12-01T10:33:57Z</time>
      </trkpt>
      <trkpt lat="49.99118" lon="2.50308">
        <ele>116</ele>
        <time>2013-12-01T10:34:08Z</time>
      </trkpt>
      <trkpt lat="49.99122" lon="2.50329">
        <ele>112.5</ele>
        <time>2013-12-01T10:34:20Z</time>
      </trkpt>
      <trkpt lat="49.99124" lon="2.50351">
        <ele>108.2</ele>
        <time>2013-12-01T10:34:32Z</time>
      </trkpt>
      <trkpt lat="49.99131" lon="2.50371">
        <ele>108.7</ele>
        <time>2013-12-01T10:34:42Z</time>
      </trkpt>
      <trkpt lat="49.99138" lon="2.50391">
        <ele>109.3</ele>
        <time>2013-12-01T10:34:53Z</time>
      </trkpt>
      <trkpt lat="49.99146" lon="2.50408">
        <ele>110</ele>
        <time>2013-12-01T10:35:02Z</time>
      </trkpt>
      <trkpt lat="49.99154" lon="2.50427">
        <ele>114.9</ele>
        <time>2013-12-01T10:35:11Z</time>
      </trkpt>
      <trkpt lat="49.99162" lon="2.50445">
        <ele>117.4</ele>
        <time>2013-12-01T10:35:21Z</time>
      </trkpt>
      <trkpt lat="49.99169" lon="2.50464">
        <ele>116.8</ele>
        <time>2013-12-01T10:35:31Z</time>
      </trkpt>
      <trkpt lat="49.99171" lon="2.50486">
        <ele>114.7</ele>
        <time>2013-12-01T10:35:42Z</time>
      </trkpt>
      <trkpt lat="49.99178" lon="2.50505">
        <ele>112</ele>
        <time>2013-12-01T10:35:52Z</time>
      </trkpt>
      <trkpt lat="49.99184" lon="2.50524">
        <ele>114.1</ele>
        <time>2013-12-01T10:36:02Z</time>
      </trkpt>
      <trkpt lat="49.99193" lon="2.50543">
        <ele>115.7</ele>
        <time>2013-12-01T10:36:10Z</time>
      </trkpt>
      <trkpt lat="49.99199" lon="2.50563">
        <ele>117.8</ele>
        <time>2013-12-01T10:36:20Z</time>
      </trkpt>
      <trkpt lat="49.99205" lon="2.50582">
        <ele>119.8</ele>
        <time>2013-12-01T10:36:30Z</time>
      </trkpt>
      <trkpt lat="49.99212" lon="2.50601">
        <ele>121.4</ele>
        <time>2013-12-01T10:36:39Z</time>
      </trkpt>
      <trkpt lat="49.99218" lon="2.50621">
        <ele>123.1</ele>
        <time>2013-12-01T10:36:48Z</time>
      </trkpt>
      <trkpt lat="49.99227" lon="2.50638">
        <ele>124.9</ele>
        <time>2013-12-01T10:36:57Z</time>
      </trkpt>
      <trkpt lat="49.99233" lon="2.50657">
        <ele>123.4</ele>
        <time>2013-12-01T10:37:06Z</time>
      </trkpt>
      <trkpt lat="49.99237" lon="2.50679">
        <ele>123</ele>
        <time>2013-12-01T10:37:16Z</time>
      </trkpt>
      <trkpt lat="49.9924" lon="2.50701">
        <ele>123.3</ele>
        <time>2013-12-01T10:37:30Z</time>
      </trkpt>
      <trkpt lat="49.99242" lon="2.50724">
        <ele>123.8</ele>
        <time>2013-12-01T10:37:40Z</time>
      </trkpt>
      <trkpt lat="49.99243" lon="2.50745">
        <ele>122.7</ele>
        <time>2013-12-01T10:37:50Z</time>
      </trkpt>
      <trkpt lat="49.99245" lon="2.50768">
        <ele>119.3</ele>
        <time>2013-12-01T10:38:04Z</time>
      </trkpt>
      <trkpt lat="49.99248" lon="2.50791">
        <ele>117</ele>
        <time>2013-12-01T10:38:17Z</time>
      </trkpt>
      <trkpt lat="49.99251" lon="2.50812">
        <ele>112.9</ele>
        <time>2013-12-01T10:38:24Z</time>
      </trkpt>
      <trkpt lat="49.99255" lon="2.50833">
        <ele>111.3</ele>
        <time>2013-12-01T10:38:35Z</time>
      </trkpt>
      <trkpt lat="49.9926" lon="2.50852">
        <ele>109.7</ele>
        <time>2013-12-01T10:38:46Z</time>
      </trkpt>
      <trkpt lat="49.99266" lon="2.50874">
        <ele>109.4</ele>
        <time>2013-12-01T10:38:56Z</time>
      </trkpt>
      <trkpt lat="49.99272" lon="2.50893">
        <ele>110.1</ele>
        <time>2013-12-01T10:39:06Z</time>
      </trkpt>
      <trkpt lat="49.99277" lon="2.50914">
        <ele>110.8</ele>
        <time>2013-12-01T10:39:16Z</time>
      </trkpt>
      <trkpt lat="49.99286" lon="2.50933">
        <ele>108.5</ele>
        <time>2013-12-01T10:39:26Z</time>
      </trkpt>
      <trkpt lat="49.99289" lon="2.50953">
        <ele>108</ele>
        <time>2013-12-01T10:39:34Z</time>
      </trkpt>
      <trkpt lat="49.99294" lon="2.50974">
        <ele>109.9</ele>
        <time>2013-12-01T10:39:44Z</time>
      </trkpt>
      <trkpt lat="49.99297" lon="2.50996">
        <ele>109.4</ele>
        <time>2013-12-01T10:39:54Z</time>
      </trkpt>
      <trkpt lat="49.993" lon="2.51017">
        <ele>108.9</ele>
        <time>2013-12-01T10:40:05Z</time>
      </trkpt>
      <trkpt lat="49.99306" lon="2.51037">
        <ele>108.4</ele>
        <time>2013-12-01T10:40:15Z</time>
      </trkpt>
      <trkpt lat="49.99313" lon="2.51055">
        <ele>107.9</ele>
        <time>2013-12-01T10:40:25Z</time>
      </trkpt>
      <trkpt lat="49.99316" lon="2.51076">
        <ele>107.4</ele>
        <time>2013-12-01T10:40:35Z</time>
      </trkpt>
      <trkpt lat="49.99321" lon="2.51097">
        <ele>107.3</ele>
        <time>2013-12-01T10:40:46Z</time>
      </trkpt>
      <trkpt lat="49.99323" lon="2.51118">
        <ele>108.2</ele>
        <time>2013-12-01T10:40:56Z</time>
      </trkpt>
      <trkpt lat="49.99328" lon="2.51139">
        <ele>109</ele>
        <time>2013-12-01T10:41:06Z</time>
      </trkpt>
      <trkpt lat="49.99329" lon="2.51161">
        <ele>109.9</ele>
        <time>2013-12-01T10:41:16Z</time>
      </trkpt>
      <trkpt lat="49.99337" lon="2.51179">
        <ele>110.7</ele>
        <time>2013-12-01T10:41:25Z</time>
      </trkpt>
      <trkpt lat="49.99346" lon="2.51196">
        <ele>110.5</ele>
        <time>2013-12-01T10:41:34Z</time>
      </trkpt>
      <trkpt lat="49.99351" lon="2.51217">
        <ele>109.5</ele>
        <time>2013-12-01T10:41:45Z</time>
      </trkpt>
      <trkpt lat="49.99353" lon="2.51237">
        <ele>108.6</ele>
        <time>2013-12-01T10:41:55Z</time>
      </trkpt>
      <trkpt lat="49.99355" lon="2.51258">
        <ele>107.7</ele>
        <time>2013-12-01T10:42:05Z</time>
      </trkpt>
      <trkpt lat="49.99355" lon="2.5128">
        <ele>107.5</ele>
        <time>2013-12-01T10:42:15Z</time>
      </trkpt>
      <trkpt lat="49.99363" lon="2.51298">
        <ele>109.3</ele>
        <time>2013-12-01T10:42:25Z</time>
      </trkpt>
      <trkpt lat="49.99366" lon="2.51319">
        <ele>104</ele>
        <time>2013-12-01T10:42:34Z</time>
      </trkpt>
      <trkpt lat="49.99368" lon="2.5134">
        <ele>100.4</ele>
        <time>2013-12-01T10:42:44Z</time>
      </trkpt>
      <trkpt lat="49.99372" lon="2.51362">
        <ele>101.7</ele>
        <time>2013-12-01T10:42:54Z</time>
      </trkpt>
      <trkpt lat="49.99374" lon="2.51382">
        <ele>103.4</ele>
        <time>2013-12-01T10:43:05Z</time>
      </trkpt>
      <trkpt lat="49.99386" lon="2.51394">
        <ele>107</ele>
        <time>2013-12-01T10:43:14Z</time>
      </trkpt>
      <trkpt lat="49.99395" lon="2.5141">
        <ele>109.9</ele>
        <time>2013-12-01T10:43:22Z</time>
      </trkpt>
      <trkpt lat="49.99407" lon="2.51421">
        <ele>111.5</ele>
        <time>2013-12-01T10:43:30Z</time>
      </trkpt>
      <trkpt lat="49.99417" lon="2.51437">
        <ele>110.9</ele>
        <time>2013-12-01T10:43:38Z</time>
      </trkpt>
      <trkpt lat="49.99421" lon="2.51458">
        <ele>111</ele>
        <time>2013-12-01T10:43:51Z</time>
      </trkpt>
      <trkpt lat="49.99434" lon="2.51472">
        <ele>113</ele>
        <time>2013-12-01T10:43:59Z</time>
      </trkpt>
      <trkpt lat="49.99446" lon="2.51486">
        <ele>115.2</ele>
        <time>2013-12-01T10:44:08Z</time>
      </trkpt>
      <trkpt lat="49.99457" lon="2.515">
        <ele>116.9</ele>
        <time>2013-12-01T10:44:18Z</time>
      </trkpt>
      <trkpt lat="49.99466" lon="2.51515">
        <ele>118</ele>
        <time>2013-12-01T10:44:28Z</time>
      </trkpt>
      <trkpt lat="49.99474" lon="2.51535">
        <ele>118</ele>
        <time>2013-12-01T10:44:39Z</time>
      </trkpt>
      <trkpt lat="49.99483" lon="2.5155">
        <ele>120.4</ele>
        <time>2013-12-01T10:44:47Z</time>
      </trkpt>
      <trkpt lat="49.99495" lon="2.51562">
        <ele>120.5</ele>
        <time>2013-12-01T10:44:54Z</time>
      </trkpt>
      <trkpt lat="49.99502" lon="2.51581">
        <ele>116.2</ele>
        <time>2013-12-01T10:45:05Z</time>
      </trkpt>
      <trkpt lat="49.99512" lon="2.51597">
        <ele>116.7</ele>
        <time>2013-12-01T10:45:13Z</time>
      </trkpt>
      <trkpt lat="49.99522" lon="2.51612">
        <ele>117.2</ele>
        <time>2013-12-01T10:45:22Z</time>
      </trkpt>
      <trkpt lat="49.99527" lon="2.51633">
        <ele>118.1</ele>
        <time>2013-12-01T10:45:37Z</time>
      </trkpt>
      <trkpt lat="49.99536" lon="2.51652">
        <ele>118.7</ele>
        <time>2013-12-01T10:45:47Z</time>
      </trkpt>
      <trkpt lat="49.99547" lon="2.51667">
        <ele>119.3</ele>
        <time>2013-12-01T10:45:57Z</time>
      </trkpt>
      <trkpt lat="49.9956" lon="2.51674">
        <ele>119.8</ele>
        <time>2013-12-01T10:46:06Z</time>
      </trkpt>
      <trkpt lat="49.99569" lon="2.5169">
        <ele>117.6</ele>
        <time>2013-12-01T10:46:18Z</time>
      </trkpt>
      <trkpt lat="49.99583" lon="2.51696">
        <ele>119.1</ele>
        <time>2013-12-01T10:46:26Z</time>
      </trkpt>
      <trkpt lat="49.99596" lon="2.51702">
        <ele>120.4</ele>
        <time>2013-12-01T10:46:34Z</time>
      </trkpt>
      <trkpt lat="49.99609" lon="2.51711">
        <ele>121.9</ele>
        <time>2013-12-01T10:46:45Z</time>
      </trkpt>
      <trkpt lat="49.99623" lon="2.51716">
        <ele>123</ele>
        <time>2013-12-01T10:46:54Z</time>
      </trkpt>
      <trkpt lat="49.99637" lon="2.51721">
        <ele>123</ele>
        <time>2013-12-01T10:47:03Z</time>
      </trkpt>
      <trkpt lat="49.99651" lon="2.51727">
        <ele>123.8</ele>
        <time>2013-12-01T10:47:13Z</time>
      </trkpt>
      <trkpt lat="49.99664" lon="2.51736">
        <ele>124.5</ele>
        <time>2013-12-01T10:47:23Z</time>
      </trkpt>
      <trkpt lat="49.99677" lon="2.51743">
        <ele>125.4</ele>
        <time>2013-12-01T10:47:34Z</time>
      </trkpt>
      <trkpt lat="49.99691" lon="2.51748">
        <ele>126</ele>
        <time>2013-12-01T10:47:42Z</time>
      </trkpt>
      <trkpt lat="49.99701" lon="2.51763">
        <ele>122</ele>
        <time>2013-12-01T10:47:52Z</time>
      </trkpt>
      <trkpt lat="49.99714" lon="2.51768">
        <ele>120.6</ele>
        <time>2013-12-01T10:48:04Z</time>
      </trkpt>
      <trkpt lat="49.99728" lon="2.51772">
        <ele>122.1</ele>
        <time>2013-12-01T10:48:15Z</time>
      </trkpt>
      <trkpt lat="49.99743" lon="2.51772">
        <ele>121.7</ele>
        <time>2013-12-01T10:48:25Z</time>
      </trkpt>
      <trkpt lat="49.99755" lon="2.51784">
        <ele>118.7</ele>
        <time>2013-12-01T10:48:37Z</time>
      </trkpt>
      <trkpt lat="49.99778" lon="2.51798">
        <ele>112.6</ele>
        <time>2013-12-01T10:49:03Z</time>
      </trkpt>
      <trkpt lat="49.99778" lon="2.51798">
        <ele>112.6</ele>
        <time>2013-12-01T10:55:07Z</time>
      </trkpt>
      <trkpt lat="49.99787" lon="2.51804">
        <ele>107.3</ele>
        <time>2013-12-01T10:55:09Z</time>
      </trkpt>
      <trkpt lat="49.99801" lon="2.51811">
        <ele>106.8</ele>
        <time>2013-12-01T10:55:21Z</time>
      </trkpt>
      <trkpt lat="49.99813" lon="2.51822">
        <ele>106.2</ele>
        <time>2013-12-01T10:55:34Z</time>
      </trkpt>
      <trkpt lat="49.99826" lon="2.51829">
        <ele>106.8</ele>
        <time>2013-12-01T10:55:42Z</time>
      </trkpt>
      <trkpt lat="49.9984" lon="2.51834">
        <ele>110.1</ele>
        <time>2013-12-01T10:55:52Z</time>
      </trkpt>
      <trkpt lat="49.99854" lon="2.51839">
        <ele>110.8</ele>
        <time>2013-12-01T10:56:01Z</time>
      </trkpt>
      <trkpt lat="49.99868" lon="2.51848">
        <ele>111.7</ele>
        <time>2013-12-01T10:56:13Z</time>
      </trkpt>
      <trkpt lat="49.99882" lon="2.5185">
        <ele>112.5</ele>
        <time>2013-12-01T10:56:23Z</time>
      </trkpt>
      <trkpt lat="49.99894" lon="2.51857">
        <ele>113.2</ele>
        <time>2013-12-01T10:56:33Z</time>
      </trkpt>
      <trkpt lat="49.99907" lon="2.51865">
        <ele>113.9</ele>
        <time>2013-12-01T10:56:42Z</time>
      </trkpt>
      <trkpt lat="49.9992" lon="2.51876">
        <ele>114.7</ele>
        <time>2013-12-01T10:56:53Z</time>
      </trkpt>
      <trkpt lat="49.99933" lon="2.51886">
        <ele>115.6</ele>
        <time>2013-12-01T10:57:04Z</time>
      </trkpt>
      <trkpt lat="49.99948" lon="2.51886">
        <ele>116</ele>
        <time>2013-12-01T10:57:11Z</time>
      </trkpt>
      <trkpt lat="49.99961" lon="2.51895">
        <ele>115.6</ele>
        <time>2013-12-01T10:57:22Z</time>
      </trkpt>
      <trkpt lat="49.99975" lon="2.51902">
        <ele>115.3</ele>
        <time>2013-12-01T10:57:32Z</time>
      </trkpt>
      <trkpt lat="49.9999" lon="2.51907">
        <ele>115</ele>
        <time>2013-12-01T10:57:41Z</time>
      </trkpt>
      <trkpt lat="50.00003" lon="2.51916">
        <ele>114.6</ele>
        <time>2013-12-01T10:57:52Z</time>
      </trkpt>
      <trkpt lat="50.00016" lon="2.51922">
        <ele>114.3</ele>
        <time>2013-12-01T10:58:01Z</time>
      </trkpt>
      <trkpt lat="50.00026" lon="2.51937">
        <ele>113.8</ele>
        <time>2013-12-01T10:58:15Z</time>
      </trkpt>
      <trkpt lat="50.0004" lon="2.51942">
        <ele>113.5</ele>
        <time>2013-12-01T10:58:24Z</time>
      </trkpt>
      <trkpt lat="50.00052" lon="2.51952">
        <ele>113.1</ele>
        <time>2013-12-01T10:58:35Z</time>
      </trkpt>
      <trkpt lat="50.00066" lon="2.51954">
        <ele>112.9</ele>
        <time>2013-12-01T10:58:41Z</time>
      </trkpt>
      <trkpt lat="50.00079" lon="2.51955">
        <ele>112.6</ele>
        <time>2013-12-01T10:58:50Z</time>
      </trkpt>
      <trkpt lat="50.00092" lon="2.51964">
        <ele>112.1</ele>
        <time>2013-12-01T10:59:02Z</time>
      </trkpt>
      <trkpt lat="50.00106" lon="2.5197">
        <ele>111.7</ele>
        <time>2013-12-01T10:59:11Z</time>
      </trkpt>
      <trkpt lat="50.0012" lon="2.51979">
        <ele>111.2</ele>
        <time>2013-12-01T10:59:23Z</time>
      </trkpt>
      <trkpt lat="50.0013" lon="2.51992">
        <ele>110.7</ele>
        <time>2013-12-01T10:59:35Z</time>
      </trkpt>
      <trkpt lat="50.00144" lon="2.51997">
        <ele>110.4</ele>
        <time>2013-12-01T10:59:43Z</time>
      </trkpt>
      <trkpt lat="50.00158" lon="2.52003">
        <ele>110</ele>
        <time>2013-12-01T10:59:53Z</time>
      </trkpt>
      <trkpt lat="50.00171" lon="2.52007">
        <ele>109.5</ele>
        <time>2013-12-01T11:00:04Z</time>
      </trkpt>
      <trkpt lat="50.00186" lon="2.52013">
        <ele>109.1</ele>
        <time>2013-12-01T11:00:14Z</time>
      </trkpt>
      <trkpt lat="50.00198" lon="2.52022">
        <ele>108.7</ele>
        <time>2013-12-01T11:00:23Z</time>
      </trkpt>
      <trkpt lat="50.00211" lon="2.52034">
        <ele>108.1</ele>
        <time>2013-12-01T11:00:36Z</time>
      </trkpt>
      <trkpt lat="50.00225" lon="2.52038">
        <ele>107.6</ele>
        <time>2013-12-01T11:00:47Z</time>
      </trkpt>
      <trkpt lat="50.00239" lon="2.52047">
        <ele>107.1</ele>
        <time>2013-12-01T11:00:57Z</time>
      </trkpt>
      <trkpt lat="50.00252" lon="2.52053">
        <ele>106</ele>
        <time>2013-12-01T11:01:07Z</time>
      </trkpt>
      <trkpt lat="50.00266" lon="2.5205">
        <ele>104.7</ele>
        <time>2013-12-01T11:01:16Z</time>
      </trkpt>
      <trkpt lat="50.0028" lon="2.52045">
        <ele>102</ele>
        <time>2013-12-01T11:01:27Z</time>
      </trkpt>
      <trkpt lat="50.00292" lon="2.52033">
        <ele>102</ele>
        <time>2013-12-01T11:01:37Z</time>
      </trkpt>
      <trkpt lat="50.00304" lon="2.52025">
        <ele>102</ele>
        <time>2013-12-01T11:01:48Z</time>
      </trkpt>
      <trkpt lat="50.00317" lon="2.52015">
        <ele>100.2</ele>
        <time>2013-12-01T11:01:57Z</time>
      </trkpt>
      <trkpt lat="50.0033" lon="2.52004">
        <ele>98.2</ele>
        <time>2013-12-01T11:02:08Z</time>
      </trkpt>
      <trkpt lat="50.00342" lon="2.5199">
        <ele>94</ele>
        <time>2013-12-01T11:02:19Z</time>
      </trkpt>
      <trkpt lat="50.00353" lon="2.51977">
        <ele>91.5</ele>
        <time>2013-12-01T11:02:29Z</time>
      </trkpt>
      <trkpt lat="50.00366" lon="2.51966">
        <ele>90.4</ele>
        <time>2013-12-01T11:02:40Z</time>
      </trkpt>
      <trkpt lat="50.00377" lon="2.51955">
        <ele>89.8</ele>
        <time>2013-12-01T11:02:49Z</time>
      </trkpt>
      <trkpt lat="50.00391" lon="2.51948">
        <ele>89</ele>
        <time>2013-12-01T11:03:00Z</time>
      </trkpt>
      <trkpt lat="50.00405" lon="2.51938">
        <ele>88.3</ele>
        <time>2013-12-01T11:03:11Z</time>
      </trkpt>
      <trkpt lat="50.00414" lon="2.51921">
        <ele>87.3</ele>
        <time>2013-12-01T11:03:20Z</time>
      </trkpt>
      <trkpt lat="50.00424" lon="2.51905">
        <ele>85.6</ele>
        <time>2013-12-01T11:03:32Z</time>
      </trkpt>
      <trkpt lat="50.0043" lon="2.51895">
        <ele>84</ele>
        <time>2013-12-01T11:03:43Z</time>
      </trkpt>
      <trkpt lat="50.00444" lon="2.519">
        <ele>80.9</ele>
        <time>2013-12-01T11:03:53Z</time>
      </trkpt>
      <trkpt lat="50.00457" lon="2.51903">
        <ele>78.6</ele>
        <time>2013-12-01T11:04:04Z</time>
      </trkpt>
      <trkpt lat="50.00471" lon="2.5191">
        <ele>77.5</ele>
        <time>2013-12-01T11:04:16Z</time>
      </trkpt>
      <trkpt lat="50.00484" lon="2.51915">
        <ele>76.7</ele>
        <time>2013-12-01T11:04:25Z</time>
      </trkpt>
      <trkpt lat="50.00497" lon="2.51921">
        <ele>76</ele>
        <time>2013-12-01T11:04:33Z</time>
      </trkpt>
      <trkpt lat="50.0051" lon="2.5193">
        <ele>76</ele>
        <time>2013-12-01T11:04:45Z</time>
      </trkpt>
      <trkpt lat="50.00523" lon="2.51935">
        <ele>73.8</ele>
        <time>2013-12-01T11:04:58Z</time>
      </trkpt>
      <trkpt lat="50.00537" lon="2.51934">
        <ele>72.4</ele>
        <time>2013-12-01T11:05:08Z</time>
      </trkpt>
      <trkpt lat="50.00551" lon="2.51932">
        <ele>71.5</ele>
        <time>2013-12-01T11:05:17Z</time>
      </trkpt>
      <trkpt lat="50.00565" lon="2.51938">
        <ele>70.5</ele>
        <time>2013-12-01T11:05:28Z</time>
      </trkpt>
      <trkpt lat="50.00579" lon="2.51934">
        <ele>71.1</ele>
        <time>2013-12-01T11:05:38Z</time>
      </trkpt>
      <trkpt lat="50.00592" lon="2.5194">
        <ele>72.9</ele>
        <time>2013-12-01T11:05:47Z</time>
      </trkpt>
      <trkpt lat="50.00603" lon="2.51953">
        <ele>72.1</ele>
        <time>2013-12-01T11:05:58Z</time>
      </trkpt>
      <trkpt lat="50.00614" lon="2.51966">
        <ele>71.4</ele>
        <time>2013-12-01T11:06:10Z</time>
      </trkpt>
      <trkpt lat="50.00627" lon="2.51975">
        <ele>70.6</ele>
        <time>2013-12-01T11:06:22Z</time>
      </trkpt>
      <trkpt lat="50.0064" lon="2.51986">
        <ele>69.9</ele>
        <time>2013-12-01T11:06:32Z</time>
      </trkpt>
      <trkpt lat="50.00652" lon="2.51995">
        <ele>69.3</ele>
        <time>2013-12-01T11:06:42Z</time>
      </trkpt>
      <trkpt lat="50.00662" lon="2.52013">
        <ele>71.2</ele>
        <time>2013-12-01T11:06:54Z</time>
      </trkpt>
      <trkpt lat="50.00674" lon="2.52023">
        <ele>70.9</ele>
        <time>2013-12-01T11:07:05Z</time>
      </trkpt>
      <trkpt lat="50.00687" lon="2.52033">
        <ele>69.3</ele>
        <time>2013-12-01T11:07:16Z</time>
      </trkpt>
      <trkpt lat="50.00698" lon="2.52045">
        <ele>66.9</ele>
        <time>2013-12-01T11:07:29Z</time>
      </trkpt>
      <trkpt lat="50.00709" lon="2.52058">
        <ele>64.9</ele>
        <time>2013-12-01T11:07:38Z</time>
      </trkpt>
      <trkpt lat="50.00721" lon="2.52069">
        <ele>64.3</ele>
        <time>2013-12-01T11:07:51Z</time>
      </trkpt>
      <trkpt lat="50.00735" lon="2.52076">
        <ele>64.3</ele>
        <time>2013-12-01T11:08:00Z</time>
      </trkpt>
      <trkpt lat="50.00747" lon="2.52085">
        <ele>67</ele>
        <time>2013-12-01T11:08:10Z</time>
      </trkpt>
      <trkpt lat="50.00761" lon="2.5208">
        <ele>59</ele>
        <time>2013-12-01T11:08:25Z</time>
      </trkpt>
      <trkpt lat="50.00766" lon="2.5206">
        <ele>57.4</ele>
        <time>2013-12-01T11:08:35Z</time>
      </trkpt>
      <trkpt lat="50.00767" lon="2.52038">
        <ele>56</ele>
        <time>2013-12-01T11:08:43Z</time>
      </trkpt>
      <trkpt lat="50.00773" lon="2.5202">
        <ele>54.2</ele>
        <time>2013-12-01T11:08:53Z</time>
      </trkpt>
      <trkpt lat="50.00788" lon="2.52022">
        <ele>56.1</ele>
        <time>2013-12-01T11:09:01Z</time>
      </trkpt>
      <trkpt lat="50.00802" lon="2.52028">
        <ele>58.9</ele>
        <time>2013-12-01T11:09:10Z</time>
      </trkpt>
      <trkpt lat="50.00817" lon="2.52032">
        <ele>61.2</ele>
        <time>2013-12-01T11:09:23Z</time>
      </trkpt>
      <trkpt lat="50.0083" lon="2.52038">
        <ele>61.5</ele>
        <time>2013-12-01T11:09:34Z</time>
      </trkpt>
      <trkpt lat="50.00841" lon="2.52051">
        <ele>61.8</ele>
        <time>2013-12-01T11:09:45Z</time>
      </trkpt>
      <trkpt lat="50.0084" lon="2.52072">
        <ele>62</ele>
        <time>2013-12-01T11:09:55Z</time>
      </trkpt>
      <trkpt lat="50.00838" lon="2.52095">
        <ele>62.4</ele>
        <time>2013-12-01T11:10:07Z</time>
      </trkpt>
      <trkpt lat="50.00842" lon="2.52117">
        <ele>62.7</ele>
        <time>2013-12-01T11:10:19Z</time>
      </trkpt>
      <trkpt lat="50.00839" lon="2.52138">
        <ele>62.9</ele>
        <time>2013-12-01T11:10:28Z</time>
      </trkpt>
      <trkpt lat="50.00838" lon="2.52159">
        <ele>63.2</ele>
        <time>2013-12-01T11:10:37Z</time>
      </trkpt>
      <trkpt lat="50.00839" lon="2.52182">
        <ele>63.5</ele>
        <time>2013-12-01T11:10:49Z</time>
      </trkpt>
      <trkpt lat="50.00838" lon="2.52204">
        <ele>63.8</ele>
        <time>2013-12-01T11:10:59Z</time>
      </trkpt>
      <trkpt lat="50.00832" lon="2.52223">
        <ele>63.8</ele>
        <time>2013-12-01T11:11:10Z</time>
      </trkpt>
      <trkpt lat="50.00831" lon="2.52246">
        <ele>63.2</ele>
        <time>2013-12-01T11:11:19Z</time>
      </trkpt>
      <trkpt lat="50.00829" lon="2.52268">
        <ele>62.5</ele>
        <time>2013-12-01T11:11:27Z</time>
      </trkpt>
      <trkpt lat="50.00825" lon="2.5229">
        <ele>61.9</ele>
        <time>2013-12-01T11:11:35Z</time>
      </trkpt>
      <trkpt lat="50.00821" lon="2.52311">
        <ele>61.2</ele>
        <time>2013-12-01T11:11:45Z</time>
      </trkpt>
      <trkpt lat="50.00825" lon="2.52331">
        <ele>60.2</ele>
        <time>2013-12-01T11:11:59Z</time>
      </trkpt>
      <trkpt lat="50.00825" lon="2.52352">
        <ele>59.8</ele>
        <time>2013-12-01T11:12:06Z</time>
      </trkpt>
      <trkpt lat="50.00825" lon="2.52373">
        <ele>59.2</ele>
        <time>2013-12-01T11:12:15Z</time>
      </trkpt>
      <trkpt lat="50.00838" lon="2.52367">
        <ele>58.6</ele>
        <time>2013-12-01T11:12:25Z</time>
      </trkpt>
      <trkpt lat="50.00853" lon="2.52365">
        <ele>57.8</ele>
        <time>2013-12-01T11:12:37Z</time>
      </trkpt>
      <trkpt lat="50.00866" lon="2.52366">
        <ele>57.1</ele>
        <time>2013-12-01T11:12:47Z</time>
      </trkpt>
      <trkpt lat="50.00876" lon="2.52374">
        <ele>60</ele>
        <time>2013-12-01T11:13:00Z</time>
      </trkpt>
    </trkseg>
  </trk>
</gpx>